Wetterdaten: Sonntag, 17.09.2023
Datum Zeit Temp. Aussen Temp. o. S. Temp +5cm Feuchte Auss Luftdruck Regen Sonnenschein Regendauer Solar Windben Empfang
17.09.2023 00:00 20,0 C 18,9 C 15,0 C 97 % 1013,6 hPa 0,2 l/m 0 min 2 min 0 W/m 9,7 km/h (2 Bft) 100,00 %
17.09.2023 00:02 20,0 C 18,9 C 15,0 C 97 % 1013,6 hPa 0,2 l/m 0 min 2 min 0 W/m 9,7 km/h (2 Bft) 94,44 %
17.09.2023 00:04 19,9 C 18,9 C 15,0 C 97 % 1013,7 hPa 0,0 l/m 0 min 2 min 0 W/m 6,4 km/h (2 Bft) 93,75 %
17.09.2023 00:10 19,9 C 18,9 C 15,0 C 97 % 1013,4 hPa 0,0 l/m 0 min 0 min 0 W/m 3,2 km/h (1 Bft) 97,67 %
17.09.2023 00:12 19,9 C 18,9 C 15,0 C 97 % 1013,4 hPa 0,0 l/m 0 min 0 min 0 W/m 3,2 km/h (1 Bft) 97,87 %
17.09.2023 00:16 19,9 C 18,9 C 15,0 C 98 % 1013,5 hPa 0,0 l/m 0 min 0 min 0 W/m 3,2 km/h (1 Bft) 97,87 %
17.09.2023 00:18 19,9 C 18,9 C 15,0 C 98 % 1013,6 hPa 0,0 l/m 0 min 0 min 0 W/m 0,0 km/h (0 Bft) 95,74 %
17.09.2023 00:20 19,9 C 18,9 C 15,0 C 98 % 1013,5 hPa 0,0 l/m 0 min 2 min 0 W/m 3,2 km/h (1 Bft) 97,83 %
17.09.2023 00:22 19,9 C 18,9 C 15,0 C 98 % 1013,5 hPa 0,0 l/m 0 min 2 min 0 W/m 3,2 km/h (1 Bft) 97,87 %
17.09.2023 00:24 19,9 C 18,9 C 15,0 C 98 % 1013,4 hPa 0,0 l/m 0 min 0 min 0 W/m 3,2 km/h (1 Bft) 97,87 %
17.09.2023 00:26 19,9 C 18,9 C 15,0 C 98 % 1013,4 hPa 0,0 l/m 0 min 0 min 0 W/m 0,0 km/h (0 Bft) 95,74 %
17.09.2023 00:28 19,9 C 18,9 C 15,0 C 98 % 1013,4 hPa 0,0 l/m 0 min 0 min 0 W/m 0,0 km/h (0 Bft) 95,74 %
17.09.2023 00:30 19,9 C 18,9 C 15,0 C 98 % 1013,4 hPa 0,0 l/m 0 min 0 min 0 W/m 3,2 km/h (1 Bft) 93,62 %
17.09.2023 00:32 19,9 C 18,9 C 15,0 C 98 % 1013,4 hPa 0,0 l/m 0 min 0 min 0 W/m 3,2 km/h (1 Bft) 96,23 %
17.09.2023 00:34 19,9 C 18,9 C 15,0 C 98 % 1013,3 hPa 0,0 l/m 0 min 0 min 0 W/m 3,2 km/h (1 Bft) 95,65 %
17.09.2023 00:36 19,9 C 18,9 C 15,0 C 98 % 1013,2 hPa 0,0 l/m 0 min 0 min 0 W/m 3,2 km/h (1 Bft) 95,74 %
17.09.2023 00:38 19,9 C 18,9 C 15,0 C 98 % 1013,3 hPa 0,0 l/m 0 min 0 min 0 W/m 6,4 km/h (2 Bft) 95,74 %
17.09.2023 00:40 19,8 C 18,9 C 15,0 C 98 % 1013,3 hPa 0,0 l/m 0 min 0 min 0 W/m 16,1 km/h (3 Bft) 95,74 %
17.09.2023 00:42 19,8 C 18,9 C 15,0 C 98 % 1013,3 hPa 0,0 l/m 0 min 0 min 0 W/m 9,7 km/h (2 Bft) 97,87 %
17.09.2023 00:44 19,8 C 18,9 C 15,0 C 98 % 1013,3 hPa 0,0 l/m 0 min 0 min 0 W/m 3,2 km/h (1 Bft) 93,62 %
17.09.2023 00:46 19,8 C 18,9 C 15,0 C 98 % 1013,4 hPa 0,0 l/m 0 min 0 min 0 W/m 9,7 km/h (2 Bft) 95,83 %
17.09.2023 00:48 19,8 C 18,9 C 15,0 C 98 % 1013,6 hPa 0,0 l/m 0 min 0 min 0 W/m 9,7 km/h (2 Bft) 95,65 %
17.09.2023 00:50 19,8 C 18,9 C 15,0 C 98 % 1013,7 hPa 0,0 l/m 0 min 0 min 0 W/m 3,2 km/h (1 Bft) 95,74 %
17.09.2023 00:52 19,8 C 18,9 C 15,0 C 98 % 1013,7 hPa 0,0 l/m 0 min 0 min 0 W/m 3,2 km/h (1 Bft) 93,62 %
17.09.2023 00:54 19,8 C 18,9 C 15,0 C 98 % 1013,6 hPa 0,0 l/m 0 min 0 min 0 W/m 3,2 km/h (1 Bft) 95,74 %
17.09.2023 00:56 19,8 C 18,9 C 15,0 C 98 % 1013,6 hPa 0,0 l/m 0 min 0 min 0 W/m 6,4 km/h (2 Bft) 95,74 %
17.09.2023 00:58 19,8 C 18,9 C 15,0 C 98 % 1013,7 hPa 0,0 l/m 0 min 0 min 0 W/m 3,2 km/h (1 Bft) 93,62 %
17.09.2023 01:00 19,8 C 18,9 C 15,0 C 98 % 1013,6 hPa 0,0 l/m 0 min 0 min 0 W/m 9,7 km/h (2 Bft) 97,87 %
17.09.2023 01:02 19,8 C 18,9 C 15,0 C 98 % 1013,5 hPa 0,0 l/m 0 min 0 min 0 W/m 0,0 km/h (0 Bft) 100,00 %
17.09.2023 01:04 19,8 C 18,9 C 15,0 C 98 % 1013,4 hPa 0,0 l/m 0 min 0 min 0 W/m 6,4 km/h (2 Bft) 100,00 %
17.09.2023 01:06 19,8 C 18,9 C 15,0 C 98 % 1013,4 hPa 0,0 l/m 0 min 0 min 0 W/m 3,2 km/h (1 Bft) 97,87 %
17.09.2023 01:08 19,8 C 18,9 C 15,0 C 98 % 1013,5 hPa 0,0 l/m 0 min 0 min 0 W/m 3,2 km/h (1 Bft) 95,74 %
17.09.2023 01:10 19,8 C 18,9 C 15,0 C 98 % 1013,4 hPa 0,0 l/m 0 min 0 min 0 W/m 3,2 km/h (1 Bft) 95,74 %
17.09.2023 01:12 19,8 C 18,9 C 15,0 C 98 % 1013,4 hPa 0,0 l/m 0 min 0 min 0 W/m 3,2 km/h (1 Bft) 97,87 %
17.09.2023 01:14 19,8 C 18,9 C 15,0 C 98 % 1013,5 hPa 0,0 l/m 0 min 0 min 0 W/m 3,2 km/h (1 Bft) 95,65 %
17.09.2023 01:16 19,7 C 18,9 C 15,0 C 98 % 1013,5 hPa 0,0 l/m 0 min 0 min 0 W/m 12,9 km/h (3 Bft) 97,87 %
17.09.2023 01:18 19,7 C 18,9 C 15,0 C 98 % 1013,5 hPa 0,0 l/m 0 min 0 min 0 W/m 6,4 km/h (2 Bft) 97,87 %
17.09.2023 01:20 19,7 C 18,9 C 14,4 C 98 % 1013,5 hPa 0,0 l/m 0 min 0 min 0 W/m 16,1 km/h (3 Bft) 97,87 %
17.09.2023 01:22 19,7 C 18,3 C 14,4 C 97 % 1013,4 hPa 0,0 l/m 0 min 0 min 0 W/m 9,7 km/h (2 Bft) 97,87 %
17.09.2023 01:24 19,6 C 18,3 C 14,4 C 97 % 1013,4 hPa 0,0 l/m 0 min 0 min 0 W/m 3,2 km/h (1 Bft) 95,74 %
17.09.2023 01:26 19,6 C 18,3 C 14,4 C 97 % 1013,3 hPa 0,0 l/m 0 min 0 min 0 W/m 3,2 km/h (1 Bft) 95,74 %
17.09.2023 01:28 19,6 C 18,3 C 14,4 C 97 % 1013,3 hPa 0,0 l/m 0 min 0 min 0 W/m 0,0 km/h (0 Bft) 97,83 %
17.09.2023 01:30 19,5 C 18,3 C 14,4 C 97 % 1013,3 hPa 0,0 l/m 0 min 0 min 0 W/m 0,0 km/h (0 Bft) 97,73 %
17.09.2023 01:32 19,4 C 18,3 C 14,4 C 97 % 1013,4 hPa 0,0 l/m 0 min 0 min 0 W/m 0,0 km/h (0 Bft) 98,00 %
17.09.2023 01:34 19,4 C 18,3 C 14,4 C 97 % 1013,3 hPa 0,0 l/m 0 min 0 min 0 W/m 0,0 km/h (0 Bft) 97,87 %
17.09.2023 01:36 19,4 C 18,3 C 14,4 C 97 % 1013,3 hPa 0,0 l/m 0 min 0 min 0 W/m 0,0 km/h (0 Bft) 97,87 %
17.09.2023 01:38 19,4 C 18,3 C 14,4 C 97 % 1013,3 hPa 0,0 l/m 0 min 0 min 0 W/m 0,0 km/h (0 Bft) 97,87 %
17.09.2023 01:40 19,4 C 18,3 C 14,4 C 97 % 1013,3 hPa 0,0 l/m 0 min 0 min 0 W/m 0,0 km/h (0 Bft) 97,87 %
17.09.2023 01:42 19,3 C 18,3 C 14,4 C 97 % 1013,3 hPa 0,0 l/m 0 min 0 min 0 W/m 0,0 km/h (0 Bft) 97,83 %
17.09.2023 01:44 19,3 C 18,3 C 14,4 C 97 % 1013,3 hPa 0,0 l/m 0 min 0 min 0 W/m 3,2 km/h (1 Bft) 95,74 %
17.09.2023 01:46 19,3 C 18,3 C 14,4 C 97 % 1013,3 hPa 0,0 l/m 0 min 0 min 0 W/m 0,0 km/h (0 Bft) 97,87 %
17.09.2023 01:48 19,3 C 18,3 C 14,4 C 97 % 1013,4 hPa 0,0 l/m 0 min 0 min 0 W/m 6,4 km/h (2 Bft) 97,87 %
17.09.2023 01:50 19,3 C 18,3 C 14,4 C 97 % 1013,3 hPa 0,0 l/m 0 min 0 min 0 W/m 3,2 km/h (1 Bft) 95,74 %
17.09.2023 01:52 19,3 C 18,3 C 14,4 C 97 % 1013,4 hPa 0,0 l/m 0 min 0 min 0 W/m 0,0 km/h (0 Bft) 100,00 %
17.09.2023 01:54 19,3 C 18,3 C 14,4 C 98 % 1013,4 hPa 0,0 l/m 0 min 0 min 0 W/m 3,2 km/h (1 Bft) 97,87 %
17.09.2023 01:56 19,3 C 18,3 C 14,4 C 98 % 1013,4 hPa 0,0 l/m 0 min 0 min 0 W/m 0,0 km/h (0 Bft) 95,65 %
17.09.2023 01:58 19,3 C 18,3 C 14,4 C 97 % 1013,4 hPa 0,0 l/m 0 min 0 min 0 W/m 0,0 km/h (0 Bft) 95,74 %
17.09.2023 02:00 19,3 C 18,3 C 14,4 C 97 % 1013,4 hPa 0,0 l/m 0 min 0 min 0 W/m 3,2 km/h (1 Bft) 97,92 %
17.09.2023 02:02 19,3 C 18,3 C 14,4 C 97 % 1013,5 hPa 0,0 l/m 0 min 0 min 0 W/m 3,2 km/h (1 Bft) 100,00 %
17.09.2023 02:04 19,3 C 18,3 C 14,4 C 97 % 1013,5 hPa 0,0 l/m 0 min 0 min 0 W/m 0,0 km/h (0 Bft) 97,87 %
17.09.2023 02:06 19,3 C 18,3 C 14,4 C 97 % 1013,4 hPa 0,0 l/m 0 min 0 min 0 W/m 0,0 km/h (0 Bft) 98,39 %
17.09.2023 02:08 19,3 C 18,3 C 14,4 C 97 % 1013,3 hPa 0,0 l/m 0 min 0 min 0 W/m 0,0 km/h (0 Bft) 100,00 %
17.09.2023 02:10 19,2 C 18,3 C 14,4 C 97 % 1013,2 hPa 0,0 l/m 0 min 0 min 0 W/m 3,2 km/h (1 Bft) 97,87 %
17.09.2023 02:12 19,2 C 18,3 C 14,4 C 97 % 1013,3 hPa 0,0 l/m 0 min 0 min 0 W/m 3,2 km/h (1 Bft) 95,74 %
17.09.2023 02:14 19,2 C 18,3 C 14,4 C 97 % 1013,3 hPa 0,0 l/m 0 min 0 min 0 W/m 0,0 km/h (0 Bft) 100,00 %
17.09.2023 02:16 19,2 C 18,3 C 14,4 C 97 % 1013,4 hPa 0,0 l/m 0 min 0 min 0 W/m 3,2 km/h (1 Bft) 100,00 %
17.09.2023 02:18 19,2 C 18,3 C 14,4 C 97 % 1013,4 hPa 0,0 l/m 0 min 0 min 0 W/m 3,2 km/h (1 Bft) 95,74 %
17.09.2023 02:20 19,2 C 18,3 C 14,4 C 97 % 1013,6 hPa 0,0 l/m 0 min 0 min 0 W/m 0,0 km/h (0 Bft) 100,00 %
17.09.2023 02:22 19,2 C 18,3 C 14,4 C 97 % 1014,0 hPa 0,0 l/m 0 min 0 min 0 W/m 3,2 km/h (1 Bft) 91,49 %
17.09.2023 02:24 19,2 C 18,3 C 14,4 C 98 % 1014,3 hPa 0,0 l/m 0 min 2 min 0 W/m 3,2 km/h (1 Bft) 97,87 %
17.09.2023 02:26 19,2 C 18,3 C 14,4 C 98 % 1014,4 hPa 1,0 l/m 0 min 2 min 0 W/m 6,4 km/h (2 Bft) 97,87 %
17.09.2023 02:28 19,2 C 18,3 C 14,4 C 98 % 1014,4 hPa 1,2 l/m 0 min 2 min 0 W/m 6,4 km/h (2 Bft) 97,87 %
17.09.2023 02:30 19,2 C 17,8 C 14,4 C 98 % 1014,4 hPa 0,8 l/m 0 min 2 min 0 W/m 3,2 km/h (1 Bft) 97,83 %
17.09.2023 02:32 19,2 C 18,3 C 14,4 C 98 % 1014,3 hPa 0,6 l/m 0 min 2 min 0 W/m 9,7 km/h (2 Bft) 97,92 %
17.09.2023 02:34 19,2 C 17,8 C 14,4 C 98 % 1014,1 hPa 0,8 l/m 0 min 2 min 0 W/m 9,7 km/h (2 Bft) 95,74 %
17.09.2023 02:36 19,2 C 18,3 C 14,4 C 98 % 1014,0 hPa 0,4 l/m 0 min 2 min 0 W/m 0,0 km/h (0 Bft) 97,87 %
17.09.2023 02:38 19,2 C 17,8 C 14,4 C 98 % 1014,0 hPa 0,0 l/m 0 min 2 min 0 W/m 0,0 km/h (0 Bft) 97,87 %
17.09.2023 02:40 19,2 C 17,8 C 14,4 C 98 % 1014,0 hPa 0,2 l/m 0 min 2 min 0 W/m 0,0 km/h (0 Bft) 95,74 %
17.09.2023 02:42 19,2 C 17,8 C 14,4 C 98 % 1013,9 hPa 0,0 l/m 0 min 2 min 0 W/m 0,0 km/h (0 Bft) 97,83 %
17.09.2023 02:44 19,2 C 17,8 C 14,4 C 98 % 1013,9 hPa 0,0 l/m 0 min 2 min 0 W/m 0,0 km/h (0 Bft) 97,87 %
17.09.2023 02:46 19,2 C 17,8 C 14,4 C 98 % 1013,8 hPa 0,2 l/m 0 min 2 min 0 W/m 0,0 km/h (0 Bft) 97,87 %
17.09.2023 02:48 19,2 C 17,8 C 14,4 C 98 % 1013,8 hPa 0,0 l/m 0 min 2 min 0 W/m 0,0 km/h (0 Bft) 97,87 %
17.09.2023 02:50 19,2 C 17,8 C 14,4 C 98 % 1013,7 hPa 0,2 l/m 0 min 2 min 0 W/m 0,0 km/h (0 Bft) 95,74 %
17.09.2023 02:52 19,2 C 17,8 C 14,4 C 98 % 1013,7 hPa 0,0 l/m 0 min 2 min 0 W/m 3,2 km/h (1 Bft) 97,87 %
17.09.2023 02:54 19,2 C 17,8 C 14,4 C 98 % 1013,6 hPa 0,0 l/m 0 min 2 min 0 W/m 3,2 km/h (1 Bft) 95,65 %
17.09.2023 02:56 19,1 C 17,8 C 14,4 C 98 % 1013,6 hPa 0,0 l/m 0 min 2 min 0 W/m 3,2 km/h (1 Bft) 97,87 %
17.09.2023 02:58 19,1 C 17,8 C 14,4 C 98 % 1013,5 hPa 0,0 l/m 0 min 2 min 0 W/m 3,2 km/h (1 Bft) 100,00 %
17.09.2023 03:00 19,1 C 17,8 C 14,4 C 98 % 1013,5 hPa 0,2 l/m 0 min 2 min 0 W/m 6,4 km/h (2 Bft) 95,74 %
17.09.2023 03:02 19,1 C 17,8 C 14,4 C 98 % 1013,5 hPa 0,0 l/m 0 min 2 min 0 W/m 12,9 km/h (3 Bft) 95,74 %
17.09.2023 03:04 19,1 C 17,8 C 14,4 C 98 % 1013,4 hPa 0,0 l/m 0 min 0 min 0 W/m 0,0 km/h (0 Bft) 93,62 %
17.09.2023 03:06 19,1 C 17,8 C 14,4 C 98 % 1013,4 hPa 0,0 l/m 0 min 0 min 0 W/m 0,0 km/h (0 Bft) 97,87 %
17.09.2023 03:08 19,1 C 17,8 C 14,4 C 98 % 1013,4 hPa 0,0 l/m 0 min 0 min 0 W/m 3,2 km/h (1 Bft) 97,83 %
17.09.2023 03:10 19,1 C 17,8 C 14,4 C 98 % 1013,4 hPa 0,0 l/m 0 min 0 min 0 W/m 0,0 km/h (0 Bft) 97,87 %
17.09.2023 03:12 19,1 C 17,8 C 14,4 C 98 % 1013,3 hPa 0,0 l/m 0 min 0 min 0 W/m 0,0 km/h (0 Bft) 97,87 %
17.09.2023 03:14 19,1 C 17,8 C 14,4 C 98 % 1013,3 hPa 0,0 l/m 0 min 0 min 0 W/m 0,0 km/h (0 Bft) 97,87 %
17.09.2023 03:16 19,1 C 17,8 C 14,4 C 98 % 1013,3 hPa 0,0 l/m 0 min 0 min 0 W/m 0,0 km/h (0 Bft) 97,87 %
17.09.2023 03:18 19,1 C 17,8 C 14,4 C 98 % 1013,3 hPa 0,0 l/m 0 min 0 min 0 W/m 0,0 km/h (0 Bft) 95,74 %
17.09.2023 03:20 19,1 C 17,8 C 14,4 C 98 % 1013,2 hPa 0,0 l/m 0 min 0 min 0 W/m 9,7 km/h (2 Bft) 97,83 %
17.09.2023 03:22 19,1 C 17,8 C 14,4 C 98 % 1013,2 hPa 0,0 l/m 0 min 0 min 0 W/m 6,4 km/h (2 Bft) 97,87 %
17.09.2023 03:24 19,0 C 17,8 C 14,4 C 98 % 1013,2 hPa 0,0 l/m 0 min 0 min 0 W/m 6,4 km/h (2 Bft) 97,87 %
17.09.2023 03:26 19,0 C 17,8 C 14,4 C 98 % 1013,2 hPa 0,0 l/m 0 min 0 min 0 W/m 6,4 km/h (2 Bft) 97,87 %
17.09.2023 03:28 19,0 C 17,8 C 14,4 C 98 % 1013,1 hPa 0,0 l/m 0 min 0 min 0 W/m 6,4 km/h (2 Bft) 97,87 %
17.09.2023 03:30 19,0 C 17,8 C 14,4 C 98 % 1013,1 hPa 0,0 l/m 0 min 0 min 0 W/m 6,4 km/h (2 Bft) 95,74 %
17.09.2023 03:32 19,0 C 17,8 C 14,4 C 98 % 1013,1 hPa 0,0 l/m 0 min 0 min 0 W/m 9,7 km/h (2 Bft) 97,87 %
17.09.2023 03:34 19,0 C 17,8 C 14,4 C 98 % 1013,0 hPa 0,0 l/m 0 min 0 min 0 W/m 6,4 km/h (2 Bft) 97,83 %
17.09.2023 03:36 19,0 C 17,8 C 14,4 C 98 % 1013,0 hPa 0,0 l/m 0 min 0 min 0 W/m 3,2 km/h (1 Bft) 95,74 %
17.09.2023 03:38 18,9 C 17,8 C 14,4 C 98 % 1013,0 hPa 0,0 l/m 0 min 0 min 0 W/m 6,4 km/h (2 Bft) 97,87 %
17.09.2023 03:40 18,9 C 17,8 C 14,4 C 98 % 1013,0 hPa 0,0 l/m 0 min 0 min 0 W/m 3,2 km/h (1 Bft) 97,87 %
17.09.2023 03:42 18,9 C 17,8 C 14,4 C 98 % 1012,9 hPa 0,0 l/m 0 min 0 min 0 W/m 3,2 km/h (1 Bft) 97,87 %
17.09.2023 03:44 19,0 C 17,8 C 14,4 C 98 % 1013,0 hPa 0,0 l/m 0 min 0 min 0 W/m 0,0 km/h (0 Bft) 97,87 %
17.09.2023 03:46 19,0 C 17,8 C 14,4 C 98 % 1013,1 hPa 0,0 l/m 0 min 0 min 0 W/m 0,0 km/h (0 Bft) 97,83 %
17.09.2023 03:48 19,0 C 17,8 C 14,4 C 98 % 1013,2 hPa 0,0 l/m 0 min 0 min 0 W/m 0,0 km/h (0 Bft) 100,00 %
17.09.2023 03:50 19,0 C 17,8 C 14,4 C 98 % 1013,2 hPa 0,0 l/m 0 min 0 min 0 W/m 0,0 km/h (0 Bft) 97,87 %
17.09.2023 03:52 19,0 C 17,8 C 14,4 C 98 % 1013,2 hPa 0,0 l/m 0 min 0 min 0 W/m 0,0 km/h (0 Bft) 97,83 %
17.09.2023 03:54 19,0 C 17,8 C 14,4 C 98 % 1013,3 hPa 0,0 l/m 0 min 0 min 0 W/m 3,2 km/h (1 Bft) 95,74 %
17.09.2023 03:56 19,0 C 17,8 C 14,4 C 98 % 1013,3 hPa 0,0 l/m 0 min 0 min 0 W/m 0,0 km/h (0 Bft) 97,87 %
17.09.2023 03:58 19,0 C 17,8 C 14,4 C 99 % 1013,2 hPa 0,0 l/m 0 min 0 min 0 W/m 0,0 km/h (0 Bft) 95,74 %
17.09.2023 04:00 19,0 C 17,8 C 14,4 C 99 % 1013,2 hPa 0,2 l/m 0 min 2 min 0 W/m 0,0 km/h (0 Bft) 93,62 %
17.09.2023 04:02 19,0 C 17,8 C 14,4 C 99 % 1013,2 hPa 0,0 l/m 0 min 2 min 0 W/m 0,0 km/h (0 Bft) 100,00 %
17.09.2023 04:08 18,9 C 17,8 C 14,4 C 99 % 1013,2 hPa 0,4 l/m 0 min 5 min 0 W/m 3,2 km/h (1 Bft) 94,00 %
17.09.2023 04:09 18,9 C 17,8 C 14,4 C 99 % 1013,1 hPa 0,0 l/m 0 min 1 min 0 W/m 6,4 km/h (2 Bft) 95,83 %
17.09.2023 04:10 18,9 C 17,8 C 14,4 C 99 % 1013,1 hPa 0,2 l/m 0 min 1 min 0 W/m 6,4 km/h (2 Bft) 99,12 %
17.09.2023 04:14 18,9 C 17,8 C 14,4 C 99 % 1013,0 hPa 0,0 l/m 0 min 0 min 0 W/m 3,2 km/h (1 Bft) 95,74 %
17.09.2023 04:16 18,9 C 17,8 C 14,4 C 99 % 1013,0 hPa 0,0 l/m 0 min 0 min 0 W/m 6,4 km/h (2 Bft) 97,87 %
17.09.2023 04:18 18,9 C 17,8 C 14,4 C 99 % 1013,0 hPa 0,0 l/m 0 min 0 min 0 W/m 12,9 km/h (3 Bft) 95,74 %
17.09.2023 04:20 18,9 C 17,8 C 14,4 C 99 % 1013,0 hPa 0,0 l/m 0 min 0 min 0 W/m 6,4 km/h (2 Bft) 95,74 %
17.09.2023 04:22 18,9 C 17,8 C 14,4 C 99 % 1013,1 hPa 0,0 l/m 0 min 0 min 0 W/m 6,4 km/h (2 Bft) 91,49 %
17.09.2023 04:24 18,9 C 17,8 C 14,4 C 99 % 1013,1 hPa 0,0 l/m 0 min 0 min 0 W/m 6,4 km/h (2 Bft) 95,65 %
17.09.2023 04:26 18,9 C 17,8 C 14,4 C 99 % 1013,1 hPa 0,0 l/m 0 min 0 min 0 W/m 6,4 km/h (2 Bft) 95,74 %
17.09.2023 04:28 18,8 C 17,8 C 14,4 C 99 % 1013,1 hPa 0,0 l/m 0 min 0 min 0 W/m 3,2 km/h (1 Bft) 95,74 %
17.09.2023 04:30 18,8 C 17,8 C 14,4 C 99 % 1013,2 hPa 0,0 l/m 0 min 0 min 0 W/m 0,0 km/h (0 Bft) 95,74 %
17.09.2023 04:32 18,8 C 17,8 C 14,4 C 99 % 1013,2 hPa 0,0 l/m 0 min 0 min 0 W/m 3,2 km/h (1 Bft) 95,74 %
17.09.2023 04:34 18,8 C 17,8 C 14,4 C 99 % 1013,2 hPa 0,0 l/m 0 min 0 min 0 W/m 0,0 km/h (0 Bft) 93,62 %
17.09.2023 04:36 18,8 C 17,8 C 14,4 C 99 % 1013,2 hPa 0,0 l/m 0 min 0 min 0 W/m 3,2 km/h (1 Bft) 95,74 %
17.09.2023 04:38 18,8 C 17,8 C 14,4 C 99 % 1013,2 hPa 0,0 l/m 0 min 2 min 0 W/m 3,2 km/h (1 Bft) 93,48 %
17.09.2023 04:40 18,8 C 17,8 C 14,4 C 99 % 1013,3 hPa 0,0 l/m 0 min 2 min 0 W/m 3,2 km/h (1 Bft) 95,74 %
17.09.2023 04:42 18,8 C 17,8 C 14,4 C 99 % 1013,2 hPa 0,2 l/m 0 min 2 min 0 W/m 3,2 km/h (1 Bft) 97,87 %
17.09.2023 04:44 18,8 C 17,8 C 14,4 C 99 % 1013,1 hPa 0,2 l/m 0 min 2 min 0 W/m 3,2 km/h (1 Bft) 97,87 %
17.09.2023 04:46 18,8 C 17,8 C 14,4 C 99 % 1012,9 hPa 0,2 l/m 0 min 2 min 0 W/m 0,0 km/h (0 Bft) 95,74 %
17.09.2023 04:48 18,7 C 17,8 C 14,4 C 99 % 1012,9 hPa 0,0 l/m 0 min 2 min 0 W/m 6,4 km/h (2 Bft) 95,74 %
17.09.2023 04:50 18,7 C 17,8 C 14,4 C 99 % 1012,9 hPa 0,2 l/m 0 min 2 min 0 W/m 3,2 km/h (1 Bft) 100,00 %
17.09.2023 04:52 18,7 C 17,8 C 14,4 C 99 % 1012,9 hPa 0,2 l/m 0 min 2 min 0 W/m 3,2 km/h (1 Bft) 97,87 %
17.09.2023 04:54 18,7 C 17,8 C 14,4 C 99 % 1012,9 hPa 0,0 l/m 0 min 2 min 0 W/m 3,2 km/h (1 Bft) 100,00 %
17.09.2023 04:56 18,6 C 17,8 C 14,4 C 99 % 1013,0 hPa 0,0 l/m 0 min 2 min 0 W/m 3,2 km/h (1 Bft) 97,87 %
17.09.2023 04:58 18,6 C 17,8 C 14,4 C 99 % 1013,0 hPa 0,0 l/m 0 min 2 min 0 W/m 0,0 km/h (0 Bft) 100,00 %
17.09.2023 05:00 18,6 C 17,8 C 14,4 C 99 % 1013,1 hPa 0,0 l/m 0 min 0 min 0 W/m 6,4 km/h (2 Bft) 100,00 %
17.09.2023 05:02 18,6 C 17,2 C 14,4 C 99 % 1013,1 hPa 0,0 l/m 0 min 0 min 0 W/m 0,0 km/h (0 Bft) 97,87 %
17.09.2023 05:04 18,6 C 17,2 C 14,4 C 99 % 1013,0 hPa 0,0 l/m 0 min 0 min 0 W/m 3,2 km/h (1 Bft) 100,00 %
17.09.2023 05:06 18,6 C 17,2 C 13,9 C 99 % 1013,1 hPa 0,0 l/m 0 min 0 min 0 W/m 3,2 km/h (1 Bft) 97,87 %
17.09.2023 05:08 18,5 C 17,2 C 13,9 C 99 % 1013,1 hPa 0,0 l/m 0 min 0 min 0 W/m 6,4 km/h (2 Bft) 100,00 %
17.09.2023 05:10 18,5 C 17,2 C 13,9 C 99 % 1013,1 hPa 0,2 l/m 0 min 2 min 0 W/m 6,4 km/h (2 Bft) 100,00 %
17.09.2023 05:12 18,4 C 17,2 C 13,9 C 99 % 1013,1 hPa 0,2 l/m 0 min 2 min 0 W/m 0,0 km/h (0 Bft) 100,00 %
17.09.2023 05:14 18,4 C 17,2 C 13,9 C 99 % 1013,1 hPa 0,0 l/m 0 min 2 min 0 W/m 0,0 km/h (0 Bft) 97,87 %
17.09.2023 05:16 18,5 C 17,2 C 13,9 C 99 % 1013,0 hPa 0,2 l/m 0 min 2 min 0 W/m 3,2 km/h (1 Bft) 100,00 %
17.09.2023 05:18 18,4 C 17,2 C 13,9 C 99 % 1012,9 hPa 0,2 l/m 0 min 2 min 0 W/m 3,2 km/h (1 Bft) 100,00 %
17.09.2023 05:20 18,4 C 17,2 C 13,9 C 99 % 1012,8 hPa 0,0 l/m 0 min 2 min 0 W/m 3,2 km/h (1 Bft) 100,00 %
17.09.2023 05:22 18,4 C 17,2 C 13,9 C 99 % 1012,8 hPa 0,0 l/m 0 min 2 min 0 W/m 6,4 km/h (2 Bft) 97,87 %
17.09.2023 05:24 18,3 C 17,2 C 13,9 C 99 % 1012,8 hPa 0,0 l/m 0 min 2 min 0 W/m 6,4 km/h (2 Bft) 100,00 %
17.09.2023 05:26 18,3 C 17,2 C 13,9 C 99 % 1012,8 hPa 0,0 l/m 0 min 0 min 0 W/m 6,4 km/h (2 Bft) 97,87 %
17.09.2023 05:28 18,3 C 17,2 C 13,9 C 99 % 1012,8 hPa 0,0 l/m 0 min 0 min 0 W/m 3,2 km/h (1 Bft) 97,83 %
17.09.2023 05:30 18,3 C 17,2 C 13,9 C 99 % 1012,8 hPa 0,0 l/m 0 min 2 min 0 W/m 3,2 km/h (1 Bft) 100,00 %
17.09.2023 05:34 18,3 C 17,2 C 13,9 C 99 % 1012,8 hPa 0,0 l/m 0 min 0 min 0 W/m 3,2 km/h (1 Bft) 100,00 %
17.09.2023 05:36 18,3 C 17,2 C 13,9 C 99 % 1012,8 hPa 0,0 l/m 0 min 0 min 0 W/m 3,2 km/h (1 Bft) 97,87 %
17.09.2023 05:38 18,3 C 17,2 C 13,9 C 99 % 1012,8 hPa 0,0 l/m 0 min 0 min 0 W/m 3,2 km/h (1 Bft) 100,00 %
17.09.2023 05:40 18,2 C 17,2 C 13,9 C 99 % 1012,8 hPa 0,0 l/m 0 min 0 min 0 W/m 3,2 km/h (1 Bft) 97,87 %
17.09.2023 05:42 18,2 C 17,2 C 13,9 C 99 % 1012,8 hPa 0,0 l/m 0 min 0 min 0 W/m 3,2 km/h (1 Bft) 97,67 %
17.09.2023 05:44 18,2 C 17,2 C 13,9 C 99 % 1012,8 hPa 0,0 l/m 0 min 0 min 0 W/m 3,2 km/h (1 Bft) 100,00 %
17.09.2023 05:46 18,2 C 17,2 C 13,9 C 99 % 1012,7 hPa 0,2 l/m 0 min 2 min 0 W/m 3,2 km/h (1 Bft) 97,87 %
17.09.2023 05:48 18,2 C 17,2 C 13,9 C 99 % 1012,7 hPa 0,0 l/m 0 min 2 min 0 W/m 3,2 km/h (1 Bft) 100,00 %
17.09.2023 05:50 18,2 C 17,2 C 13,9 C 99 % 1012,7 hPa 0,0 l/m 0 min 2 min 0 W/m 6,4 km/h (2 Bft) 100,00 %
17.09.2023 05:52 18,2 C 17,2 C 13,9 C 99 % 1012,7 hPa 0,0 l/m 0 min 0 min 0 W/m 6,4 km/h (2 Bft) 97,87 %
17.09.2023 05:54 18,2 C 17,2 C 13,9 C 99 % 1012,7 hPa 0,0 l/m 0 min 2 min 0 W/m 0,0 km/h (0 Bft) 97,87 %
17.09.2023 05:56 18,2 C 17,2 C 13,9 C 99 % 1012,7 hPa 0,0 l/m 0 min 2 min 0 W/m 0,0 km/h (0 Bft) 97,87 %
17.09.2023 05:58 18,2 C 17,2 C 13,9 C 99 % 1012,7 hPa 0,0 l/m 0 min 0 min 0 W/m 0,0 km/h (0 Bft) 95,74 %
17.09.2023 06:00 18,2 C 17,2 C 13,9 C 99 % 1012,8 hPa 0,0 l/m 0 min 2 min 0 W/m 0,0 km/h (0 Bft) 97,87 %
17.09.2023 06:02 18,2 C 17,2 C 13,9 C 99 % 1012,7 hPa 0,0 l/m 0 min 2 min 0 W/m 0,0 km/h (0 Bft) 97,87 %
17.09.2023 06:04 18,2 C 17,2 C 13,9 C 99 % 1012,7 hPa 0,2 l/m 0 min 2 min 0 W/m 0,0 km/h (0 Bft) 97,73 %
17.09.2023 06:08 18,2 C 17,2 C 13,9 C 99 % 1012,6 hPa 0,0 l/m 0 min 4 min 0 W/m 0,0 km/h (0 Bft) 96,08 %
17.09.2023 06:10 18,2 C 17,2 C 13,9 C 99 % 1012,7 hPa 0,0 l/m 0 min 2 min 0 W/m 0,0 km/h (0 Bft) 97,87 %
17.09.2023 06:12 18,1 C 17,2 C 13,9 C 99 % 1012,6 hPa 0,2 l/m 0 min 2 min 0 W/m 0,0 km/h (0 Bft) 95,74 %
17.09.2023 06:16 18,2 C 17,2 C 13,9 C 99 % 1012,6 hPa 0,0 l/m 0 min 4 min 0 W/m 0,0 km/h (0 Bft) 95,70 %
17.09.2023 06:18 18,1 C 17,2 C 13,9 C 99 % 1012,6 hPa 0,0 l/m 0 min 2 min 0 W/m 0,0 km/h (0 Bft) 95,74 %
17.09.2023 06:20 18,1 C 17,2 C 13,9 C 99 % 1012,6 hPa 0,0 l/m 0 min 2 min 0 W/m 0,0 km/h (0 Bft) 95,74 %
17.09.2023 06:22 18,1 C 17,2 C 13,9 C 99 % 1012,6 hPa 0,0 l/m 0 min 2 min 0 W/m 0,0 km/h (0 Bft) 93,62 %
17.09.2023 06:24 18,1 C 17,2 C 13,9 C 99 % 1012,6 hPa 0,0 l/m 0 min 2 min 0 W/m 0,0 km/h (0 Bft) 93,62 %
17.09.2023 06:26 18,1 C 17,2 C 13,9 C 99 % 1012,6 hPa 0,2 l/m 0 min 2 min 0 W/m 0,0 km/h (0 Bft) 91,49 %
17.09.2023 06:28 18,1 C 17,2 C 13,9 C 99 % 1012,6 hPa 0,0 l/m 0 min 2 min 0 W/m 0,0 km/h (0 Bft) 95,65 %
17.09.2023 06:30 18,1 C 17,2 C 13,9 C 99 % 1012,6 hPa 0,0 l/m 0 min 0 min 0 W/m 0,0 km/h (0 Bft) 95,74 %
17.09.2023 06:32 18,1 C 17,2 C 13,9 C 99 % 1012,6 hPa 0,0 l/m 0 min 0 min 0 W/m 0,0 km/h (0 Bft) 93,62 %
17.09.2023 06:34 18,1 C 17,2 C 13,9 C 99 % 1012,5 hPa 0,0 l/m 0 min 2 min 0 W/m 0,0 km/h (0 Bft) 95,74 %
17.09.2023 06:36 18,1 C 17,2 C 13,9 C 99 % 1012,6 hPa 0,0 l/m 0 min 0 min 0 W/m 9,7 km/h (2 Bft) 95,74 %
17.09.2023 06:38 18,1 C 17,2 C 13,9 C 99 % 1012,5 hPa 0,0 l/m 0 min 0 min 0 W/m 6,4 km/h (2 Bft) 93,62 %
17.09.2023 06:40 18,1 C 17,2 C 13,9 C 99 % 1012,5 hPa 0,0 l/m 0 min 0 min 0 W/m 3,2 km/h (1 Bft) 95,74 %
17.09.2023 06:42 18,1 C 17,2 C 13,9 C 99 % 1012,5 hPa 0,0 l/m 0 min 0 min 0 W/m 3,2 km/h (1 Bft) 93,48 %
17.09.2023 06:44 18,1 C 17,2 C 13,9 C 99 % 1012,5 hPa 0,0 l/m 0 min 0 min 0 W/m 3,2 km/h (1 Bft) 91,49 %
17.09.2023 06:46 18,1 C 17,2 C 13,9 C 99 % 1012,5 hPa 0,0 l/m 0 min 0 min 0 W/m 6,4 km/h (2 Bft) 97,87 %
17.09.2023 06:48 18,0 C 17,2 C 13,9 C 99 % 1012,5 hPa 0,0 l/m 0 min 0 min 0 W/m 3,2 km/h (1 Bft) 97,87 %
17.09.2023 06:50 18,0 C 17,2 C 13,9 C 99 % 1012,5 hPa 0,0 l/m 0 min 0 min 0 W/m 6,4 km/h (2 Bft) 95,74 %
17.09.2023 06:52 18,0 C 17,2 C 13,9 C 99 % 1012,5 hPa 0,0 l/m 0 min 0 min 0 W/m 0,0 km/h (0 Bft) 97,87 %
17.09.2023 06:54 18,0 C 17,2 C 13,9 C 99 % 1012,4 hPa 0,0 l/m 0 min 0 min 0 W/m 0,0 km/h (0 Bft) 95,74 %
17.09.2023 06:56 18,0 C 17,2 C 13,9 C 99 % 1012,5 hPa 0,0 l/m 0 min 0 min 0 W/m 0,0 km/h (0 Bft) 91,30 %
17.09.2023 06:58 18,0 C 16,7 C 13,9 C 99 % 1012,5 hPa 0,0 l/m 0 min 0 min 0 W/m 0,0 km/h (0 Bft) 97,87 %
17.09.2023 07:00 17,9 C 17,2 C 13,9 C 99 % 1012,5 hPa 0,0 l/m 0 min 0 min 0 W/m 0,0 km/h (0 Bft) 97,87 %
17.09.2023 07:02 17,9 C 17,2 C 13,9 C 99 % 1012,5 hPa 0,0 l/m 0 min 0 min 0 W/m 6,4 km/h (2 Bft) 93,62 %
17.09.2023 07:04 17,9 C 16,7 C 13,9 C 99 % 1012,5 hPa 0,0 l/m 0 min 0 min 0 W/m 6,4 km/h (2 Bft) 97,62 %
17.09.2023 07:06 17,9 C 16,7 C 13,9 C 99 % 1012,5 hPa 0,0 l/m 0 min 0 min 0 W/m 6,4 km/h (2 Bft) 92,73 %
17.09.2023 07:08 17,9 C 17,2 C 13,9 C 99 % 1012,5 hPa 0,0 l/m 0 min 0 min 0 W/m 3,2 km/h (1 Bft) 97,37 %
17.09.2023 07:10 17,9 C 17,2 C 13,9 C 99 % 1012,5 hPa 0,0 l/m 0 min 0 min 0 W/m 0,0 km/h (0 Bft) 97,83 %
17.09.2023 07:12 17,9 C 17,2 C 13,9 C 99 % 1012,5 hPa 0,0 l/m 0 min 0 min 0 W/m 0,0 km/h (0 Bft) 93,62 %
17.09.2023 07:14 17,9 C 17,2 C 13,9 C 99 % 1012,6 hPa 0,0 l/m 0 min 0 min 0 W/m 0,0 km/h (0 Bft) 93,62 %
17.09.2023 07:16 17,9 C 17,2 C 13,9 C 99 % 1012,6 hPa 0,0 l/m 0 min 0 min 0 W/m 0,0 km/h (0 Bft) 97,87 %
17.09.2023 07:18 17,9 C 17,2 C 13,9 C 99 % 1012,6 hPa 0,0 l/m 0 min 0 min 0 W/m 0,0 km/h (0 Bft) 97,87 %
17.09.2023 07:20 17,9 C 17,2 C 13,9 C 99 % 1012,6 hPa 0,0 l/m 0 min 0 min 0 W/m 0,0 km/h (0 Bft) 95,74 %
17.09.2023 07:22 18,0 C 17,2 C 13,9 C 99 % 1012,6 hPa 0,0 l/m 0 min 0 min 0 W/m 0,0 km/h (0 Bft) 95,74 %
17.09.2023 07:24 17,9 C 17,2 C 13,9 C 99 % 1012,5 hPa 0,0 l/m 0 min 0 min 0 W/m 0,0 km/h (0 Bft) 97,83 %
17.09.2023 07:26 17,9 C 17,2 C 13,9 C 99 % 1012,5 hPa 0,0 l/m 0 min 0 min 0 W/m 0,0 km/h (0 Bft) 95,74 %
17.09.2023 07:28 18,0 C 17,2 C 13,9 C 99 % 1012,5 hPa 0,0 l/m 0 min 0 min 4 W/m 0,0 km/h (0 Bft) 97,87 %
17.09.2023 07:30 18,0 C 17,2 C 13,9 C 99 % 1012,6 hPa 0,0 l/m 0 min 0 min 5 W/m 0,0 km/h (0 Bft) 97,87 %
17.09.2023 07:32 18,0 C 17,2 C 13,9 C 100 % 1012,6 hPa 0,0 l/m 0 min 0 min 7 W/m 0,0 km/h (0 Bft) 97,87 %
17.09.2023 07:34 18,0 C 17,2 C 13,9 C 99 % 1012,6 hPa 0,0 l/m 0 min 0 min 7 W/m 0,0 km/h (0 Bft) 100,00 %
17.09.2023 07:36 17,9 C 17,2 C 13,9 C 99 % 1012,6 hPa 0,0 l/m 0 min 0 min 9 W/m 0,0 km/h (0 Bft) 97,87 %
17.09.2023 07:38 17,9 C 17,2 C 13,9 C 99 % 1012,6 hPa 0,0 l/m 0 min 0 min 11 W/m 0,0 km/h (0 Bft) 97,92 %
17.09.2023 07:40 17,9 C 17,2 C 13,9 C 99 % 1012,6 hPa 0,0 l/m 0 min 0 min 12 W/m 0,0 km/h (0 Bft) 100,00 %
17.09.2023 07:42 17,9 C 17,2 C 13,9 C 99 % 1012,5 hPa 0,0 l/m 0 min 0 min 12 W/m 0,0 km/h (0 Bft) 100,00 %
17.09.2023 07:44 17,9 C 17,2 C 13,9 C 99 % 1012,6 hPa 0,0 l/m 0 min 0 min 12 W/m 0,0 km/h (0 Bft) 97,83 %
17.09.2023 07:46 17,9 C 17,2 C 13,9 C 99 % 1012,6 hPa 0,0 l/m 0 min 0 min 12 W/m 0,0 km/h (0 Bft) 97,87 %
17.09.2023 07:48 17,9 C 17,2 C 13,9 C 99 % 1012,6 hPa 0,0 l/m 0 min 0 min 13 W/m 0,0 km/h (0 Bft) 97,87 %
17.09.2023 07:50 17,9 C 17,2 C 13,9 C 99 % 1012,6 hPa 0,0 l/m 0 min 0 min 14 W/m 0,0 km/h (0 Bft) 95,74 %
17.09.2023 07:52 17,9 C 17,2 C 13,9 C 99 % 1012,6 hPa 0,0 l/m 0 min 0 min 14 W/m 0,0 km/h (0 Bft) 100,00 %
17.09.2023 07:54 17,9 C 17,2 C 13,9 C 99 % 1012,6 hPa 0,0 l/m 0 min 0 min 14 W/m 0,0 km/h (0 Bft) 97,96 %
17.09.2023 07:56 17,9 C 17,2 C 13,9 C 99 % 1012,6 hPa 0,0 l/m 0 min 0 min 14 W/m 0,0 km/h (0 Bft) 100,00 %
17.09.2023 08:02 18,0 C 17,2 C 13,9 C 99 % 1012,6 hPa 5,4 l/m 0 min 0 min 17 W/m 0,0 km/h (0 Bft) 100,00 %
17.09.2023 08:04 18,0 C 17,2 C 13,9 C 99 % 1012,6 hPa 0,0 l/m 0 min 0 min 18 W/m 0,0 km/h (0 Bft) 100,00 %
17.09.2023 08:06 18,0 C 17,2 C 13,9 C 99 % 1012,6 hPa 0,0 l/m 0 min 0 min 19 W/m 0,0 km/h (0 Bft) 100,00 %
17.09.2023 08:08 18,0 C 17,2 C 13,9 C 100 % 1012,6 hPa 0,0 l/m 0 min 0 min 21 W/m 0,0 km/h (0 Bft) 97,87 %
17.09.2023 08:10 18,0 C 17,2 C 13,9 C 100 % 1012,7 hPa 0,0 l/m 0 min 0 min 21 W/m 0,0 km/h (0 Bft) 97,87 %
17.09.2023 08:12 18,1 C 17,2 C 13,9 C 100 % 1012,6 hPa 0,0 l/m 0 min 0 min 23 W/m 0,0 km/h (0 Bft) 97,92 %
17.09.2023 08:14 18,1 C 17,2 C 13,9 C 100 % 1012,6 hPa 0,0 l/m 0 min 0 min 27 W/m 0,0 km/h (0 Bft) 97,83 %
17.09.2023 08:16 18,1 C 17,2 C 13,9 C 100 % 1012,7 hPa 0,0 l/m 0 min 0 min 31 W/m 0,0 km/h (0 Bft) 97,87 %
17.09.2023 08:18 18,1 C 17,2 C 14,4 C 100 % 1012,7 hPa 0,0 l/m 0 min 0 min 37 W/m 0,0 km/h (0 Bft) 97,87 %
17.09.2023 08:20 18,1 C 17,2 C 14,4 C 100 % 1012,7 hPa 0,0 l/m 0 min 0 min 40 W/m 0,0 km/h (0 Bft) 95,74 %
17.09.2023 08:22 18,1 C 17,2 C 14,4 C 100 % 1012,7 hPa 0,0 l/m 0 min 0 min 44 W/m 0,0 km/h (0 Bft) 95,74 %
17.09.2023 08:24 18,2 C 17,2 C 14,4 C 100 % 1012,7 hPa 0,0 l/m 0 min 0 min 43 W/m 0,0 km/h (0 Bft) 97,87 %
17.09.2023 08:26 18,2 C 17,8 C 14,4 C 100 % 1012,7 hPa 0,0 l/m 0 min 0 min 42 W/m 0,0 km/h (0 Bft) 95,74 %
17.09.2023 08:28 18,2 C 17,8 C 14,4 C 100 % 1012,7 hPa 0,0 l/m 0 min 0 min 48 W/m 0,0 km/h (0 Bft) 97,83 %
17.09.2023 08:30 18,2 C 17,8 C 14,4 C 100 % 1012,7 hPa 0,0 l/m 0 min 0 min 54 W/m 0,0 km/h (0 Bft) 97,87 %
17.09.2023 08:32 18,2 C 17,8 C 14,4 C 100 % 1012,7 hPa 0,0 l/m 0 min 0 min 54 W/m 0,0 km/h (0 Bft) 93,62 %
17.09.2023 08:34 18,2 C 17,8 C 14,4 C 100 % 1012,7 hPa 0,0 l/m 0 min 0 min 52 W/m 0,0 km/h (0 Bft) 95,74 %
17.09.2023 08:36 18,3 C 17,8 C 14,4 C 100 % 1012,8 hPa 0,0 l/m 0 min 0 min 46 W/m 0,0 km/h (0 Bft) 95,74 %
17.09.2023 08:38 18,3 C 17,8 C 14,4 C 100 % 1012,7 hPa 0,0 l/m 0 min 0 min 41 W/m 0,0 km/h (0 Bft) 97,87 %
17.09.2023 08:40 18,3 C 17,8 C 14,4 C 100 % 1012,7 hPa 0,0 l/m 0 min 0 min 40 W/m 0,0 km/h (0 Bft) 97,87 %
17.09.2023 08:42 18,3 C 17,8 C 14,4 C 100 % 1012,7 hPa 0,0 l/m 0 min 0 min 43 W/m 0,0 km/h (0 Bft) 97,87 %
17.09.2023 08:44 18,3 C 17,8 C 14,4 C 100 % 1012,7 hPa 0,0 l/m 0 min 0 min 48 W/m 0,0 km/h (0 Bft) 97,83 %
17.09.2023 08:46 18,3 C 17,8 C 14,4 C 100 % 1012,7 hPa 0,0 l/m 0 min 0 min 61 W/m 0,0 km/h (0 Bft) 97,87 %
17.09.2023 08:48 18,3 C 17,8 C 14,4 C 100 % 1012,7 hPa 0,0 l/m 0 min 0 min 82 W/m 0,0 km/h (0 Bft) 97,87 %
17.09.2023 08:50 18,4 C 17,8 C 14,4 C 100 % 1012,7 hPa 0,0 l/m 0 min 0 min 95 W/m 0,0 km/h (0 Bft) 97,87 %
17.09.2023 08:52 18,4 C 18,3 C 14,4 C 100 % 1012,7 hPa 0,0 l/m 0 min 0 min 98 W/m 0,0 km/h (0 Bft) 97,87 %
17.09.2023 08:54 18,4 C 18,3 C 15,0 C 100 % 1012,7 hPa 0,0 l/m 0 min 0 min 94 W/m 0,0 km/h (0 Bft) 97,87 %
17.09.2023 08:56 18,5 C 18,3 C 15,0 C 100 % 1012,7 hPa 0,0 l/m 0 min 0 min 92 W/m 0,0 km/h (0 Bft) 96,23 %
17.09.2023 08:58 18,5 C 18,3 C 15,0 C 100 % 1012,7 hPa 0,0 l/m 0 min 0 min 95 W/m 0,0 km/h (0 Bft) 97,37 %
17.09.2023 09:00 18,6 C 18,3 C 15,0 C 100 % 1012,6 hPa 0,0 l/m 0 min 0 min 101 W/m 0,0 km/h (0 Bft) 96,55 %
17.09.2023 09:02 18,6 C 18,3 C 15,0 C 100 % 1012,6 hPa 0,0 l/m 0 min 0 min 107 W/m 0,0 km/h (0 Bft) 93,62 %
17.09.2023 09:04 18,6 C 18,9 C 15,0 C 100 % 1012,6 hPa 0,0 l/m 0 min 0 min 110 W/m 0,0 km/h (0 Bft) 97,56 %
17.09.2023 09:06 18,7 C 18,9 C 15,0 C 100 % 1012,6 hPa 0,0 l/m 0 min 0 min 111 W/m 0,0 km/h (0 Bft) 96,36 %
17.09.2023 09:08 18,7 C 18,9 C 15,0 C 100 % 1012,6 hPa 0,0 l/m 0 min 0 min 109 W/m 0,0 km/h (0 Bft) 100,00 %
17.09.2023 09:10 18,7 C 18,9 C 15,0 C 100 % 1012,6 hPa 0,0 l/m 0 min 0 min 109 W/m 0,0 km/h (0 Bft) 95,83 %
17.09.2023 09:12 18,8 C 18,9 C 15,0 C 100 % 1012,6 hPa 0,0 l/m 0 min 0 min 118 W/m 0,0 km/h (0 Bft) 95,65 %
17.09.2023 09:14 18,8 C 18,9 C 15,0 C 100 % 1012,6 hPa 0,0 l/m 0 min 0 min 126 W/m 0,0 km/h (0 Bft) 97,87 %
17.09.2023 09:16 18,9 C 18,9 C 15,6 C 100 % 1012,6 hPa 0,0 l/m 0 min 0 min 132 W/m 0,0 km/h (0 Bft) 97,87 %
17.09.2023 09:18 18,9 C 18,9 C 15,6 C 100 % 1012,6 hPa 0,0 l/m 0 min 0 min 134 W/m 0,0 km/h (0 Bft) 97,87 %
17.09.2023 09:20 19,0 C 19,4 C 15,6 C 100 % 1012,7 hPa 0,0 l/m 0 min 0 min 138 W/m 0,0 km/h (0 Bft) 97,87 %
17.09.2023 09:22 19,1 C 19,4 C 15,6 C 100 % 1012,7 hPa 0,0 l/m 0 min 0 min 139 W/m 0,0 km/h (0 Bft) 97,87 %
17.09.2023 09:24 19,2 C 19,4 C 15,6 C 100 % 1012,7 hPa 0,0 l/m 0 min 0 min 140 W/m 0,0 km/h (0 Bft) 97,87 %
17.09.2023 09:26 19,2 C 19,4 C 15,6 C 100 % 1012,7 hPa 0,0 l/m 0 min 0 min 146 W/m 0,0 km/h (0 Bft) 95,65 %
17.09.2023 09:28 19,3 C 19,4 C 15,6 C 100 % 1012,7 hPa 0,0 l/m 0 min 0 min 150 W/m 0,0 km/h (0 Bft) 95,74 %
17.09.2023 09:30 19,3 C 20,0 C 15,6 C 100 % 1012,6 hPa 0,0 l/m 0 min 0 min 156 W/m 0,0 km/h (0 Bft) 97,87 %
17.09.2023 09:32 19,4 C 20,0 C 15,6 C 100 % 1012,6 hPa 0,0 l/m 0 min 0 min 159 W/m 0,0 km/h (0 Bft) 93,62 %
17.09.2023 09:36 19,6 C 20,0 C 16,1 C 100 % 1012,6 hPa 0,0 l/m 0 min 0 min 158 W/m 0,0 km/h (0 Bft) 96,88 %
17.09.2023 09:38 19,6 C 20,0 C 16,1 C 100 % 1012,6 hPa 0,0 l/m 0 min 0 min 158 W/m 0,0 km/h (0 Bft) 95,74 %
17.09.2023 09:40 19,6 C 20,0 C 16,1 C 100 % 1012,7 hPa 0,0 l/m 0 min 0 min 160 W/m 0,0 km/h (0 Bft) 97,83 %
17.09.2023 09:42 19,7 C 20,6 C 16,1 C 100 % 1012,8 hPa 0,0 l/m 0 min 0 min 166 W/m 0,0 km/h (0 Bft) 97,87 %
17.09.2023 09:44 19,7 C 20,6 C 16,1 C 100 % 1012,7 hPa 0,0 l/m 0 min 0 min 169 W/m 0,0 km/h (0 Bft) 97,87 %
17.09.2023 09:46 19,8 C 20,6 C 16,1 C 100 % 1012,7 hPa 0,0 l/m 0 min 0 min 173 W/m 0,0 km/h (0 Bft) 97,87 %
17.09.2023 09:48 19,8 C 20,6 C 16,1 C 100 % 1012,7 hPa 0,0 l/m 0 min 0 min 177 W/m 6,4 km/h (2 Bft) 95,74 %
17.09.2023 09:50 19,8 C 20,6 C 16,1 C 100 % 1012,6 hPa 0,0 l/m 0 min 0 min 170 W/m 12,9 km/h (3 Bft) 97,87 %
17.09.2023 09:52 19,8 C 20,6 C 16,1 C 100 % 1012,6 hPa 0,0 l/m 0 min 0 min 177 W/m 6,4 km/h (2 Bft) 97,87 %
17.09.2023 09:54 19,8 C 20,6 C 16,1 C 100 % 1012,7 hPa 0,0 l/m 0 min 0 min 182 W/m 12,9 km/h (3 Bft) 97,87 %
17.09.2023 09:56 19,8 C 21,1 C 16,1 C 100 % 1012,7 hPa 0,0 l/m 0 min 0 min 190 W/m 3,2 km/h (1 Bft) 97,83 %
17.09.2023 09:58 19,9 C 21,1 C 16,1 C 100 % 1012,7 hPa 0,0 l/m 0 min 0 min 198 W/m 6,4 km/h (2 Bft) 95,74 %
17.09.2023 10:00 19,9 C 21,1 C 16,1 C 100 % 1012,7 hPa 0,0 l/m 2 min 0 min 207 W/m 19,3 km/h (3 Bft) 97,87 %
17.09.2023 10:02 20,0 C 21,1 C 16,1 C 100 % 1012,7 hPa 0,0 l/m 0 min 0 min 205 W/m 12,9 km/h (3 Bft) 95,74 %
17.09.2023 10:04 20,0 C 21,1 C 16,1 C 100 % 1012,7 hPa 0,0 l/m 0 min 0 min 157 W/m 6,4 km/h (2 Bft) 97,87 %
17.09.2023 10:06 20,1 C 21,1 C 16,1 C 100 % 1012,7 hPa 0,0 l/m 0 min 0 min 109 W/m 12,9 km/h (3 Bft) 95,74 %
17.09.2023 10:08 20,1 C 21,1 C 16,1 C 100 % 1012,7 hPa 0,0 l/m 0 min 0 min 170 W/m 12,9 km/h (3 Bft) 95,74 %
17.09.2023 10:10 20,1 C 21,1 C 16,1 C 100 % 1012,8 hPa 0,0 l/m 0 min 0 min 148 W/m 16,1 km/h (3 Bft) 95,74 %
17.09.2023 10:12 20,2 C 21,1 C 16,1 C 100 % 1012,8 hPa 0,0 l/m 0 min 0 min 155 W/m 12,9 km/h (3 Bft) 97,83 %
17.09.2023 10:14 20,2 C 21,1 C 16,1 C 100 % 1012,8 hPa 0,0 l/m 0 min 0 min 120 W/m 19,3 km/h (3 Bft) 97,87 %
17.09.2023 10:16 20,2 C 21,1 C 16,1 C 100 % 1012,8 hPa 0,0 l/m 0 min 0 min 102 W/m 12,9 km/h (3 Bft) 93,62 %
17.09.2023 10:18 20,3 C 21,1 C 16,1 C 100 % 1012,8 hPa 0,0 l/m 0 min 0 min 84 W/m 16,1 km/h (3 Bft) 95,74 %
17.09.2023 10:20 20,3 C 21,1 C 16,1 C 100 % 1012,9 hPa 0,0 l/m 0 min 0 min 71 W/m 19,3 km/h (3 Bft) 95,74 %
17.09.2023 10:22 20,2 C 21,1 C 16,1 C 100 % 1012,8 hPa 0,0 l/m 0 min 0 min 112 W/m 19,3 km/h (3 Bft) 97,87 %
17.09.2023 10:24 20,2 C 21,1 C 16,1 C 100 % 1012,9 hPa 0,0 l/m 0 min 0 min 88 W/m 6,4 km/h (2 Bft) 95,74 %
17.09.2023 10:26 20,2 C 21,1 C 16,1 C 100 % 1012,8 hPa 0,0 l/m 0 min 0 min 190 W/m 19,3 km/h (3 Bft) 95,74 %
17.09.2023 10:28 20,2 C 21,1 C 16,1 C 100 % 1012,8 hPa 0,0 l/m 0 min 0 min 116 W/m 9,7 km/h (2 Bft) 97,83 %
17.09.2023 10:30 20,2 C 21,1 C 16,1 C 100 % 1012,9 hPa 0,0 l/m 0 min 0 min 106 W/m 12,9 km/h (3 Bft) 97,87 %
17.09.2023 10:32 20,2 C 21,1 C 16,1 C 100 % 1012,8 hPa 0,0 l/m 0 min 0 min 114 W/m 22,5 km/h (4 Bft) 95,74 %
17.09.2023 10:34 20,2 C 21,1 C 16,1 C 100 % 1012,8 hPa 0,0 l/m 0 min 0 min 128 W/m 19,3 km/h (3 Bft) 97,87 %
17.09.2023 10:36 20,3 C 21,1 C 16,1 C 100 % 1012,8 hPa 0,0 l/m 0 min 0 min 112 W/m 12,9 km/h (3 Bft) 95,74 %
17.09.2023 10:38 20,3 C 21,1 C 16,1 C 100 % 1012,8 hPa 0,0 l/m 0 min 0 min 212 W/m 9,7 km/h (2 Bft) 97,87 %
17.09.2023 10:40 20,3 C 21,1 C 16,1 C 100 % 1012,9 hPa 0,0 l/m 0 min 0 min 161 W/m 6,4 km/h (2 Bft) 100,00 %
17.09.2023 10:42 20,4 C 21,1 C 16,1 C 99 % 1012,9 hPa 0,0 l/m 0 min 0 min 112 W/m 19,3 km/h (3 Bft) 100,00 %
17.09.2023 10:44 20,5 C 21,1 C 16,1 C 99 % 1012,9 hPa 0,0 l/m 0 min 0 min 87 W/m 16,1 km/h (3 Bft) 100,00 %
17.09.2023 10:46 20,6 C 21,1 C 16,1 C 99 % 1012,8 hPa 0,0 l/m 0 min 0 min 90 W/m 12,9 km/h (3 Bft) 97,87 %
17.09.2023 10:48 20,6 C 21,1 C 16,1 C 99 % 1012,8 hPa 0,0 l/m 0 min 0 min 78 W/m 12,9 km/h (3 Bft) 100,00 %
17.09.2023 10:50 20,7 C 21,1 C 16,1 C 99 % 1012,9 hPa 0,0 l/m 0 min 0 min 77 W/m 6,4 km/h (2 Bft) 100,00 %
17.09.2023 10:52 20,7 C 21,7 C 16,1 C 99 % 1012,9 hPa 0,0 l/m 0 min 0 min 136 W/m 12,9 km/h (3 Bft) 100,00 %
17.09.2023 10:54 20,8 C 21,7 C 16,1 C 99 % 1013,0 hPa 0,0 l/m 0 min 0 min 145 W/m 19,3 km/h (3 Bft) 100,00 %
17.09.2023 10:56 20,9 C 21,7 C 16,1 C 98 % 1012,9 hPa 0,0 l/m 0 min 0 min 224 W/m 12,9 km/h (3 Bft) 100,00 %
17.09.2023 10:58 20,9 C 21,7 C 16,1 C 98 % 1013,0 hPa 0,0 l/m 0 min 0 min 238 W/m 12,9 km/h (3 Bft) 100,00 %
17.09.2023 11:00 21,1 C 22,2 C 16,1 C 98 % 1013,0 hPa 0,0 l/m 2 min 0 min 272 W/m 6,4 km/h (2 Bft) 100,00 %
17.09.2023 11:02 21,1 C 22,2 C 16,1 C 97 % 1013,0 hPa 0,0 l/m 2 min 0 min 309 W/m 12,9 km/h (3 Bft) 97,87 %
17.09.2023 11:04 21,2 C 22,2 C 16,1 C 97 % 1012,9 hPa 0,0 l/m 0 min 0 min 241 W/m 12,9 km/h (3 Bft) 100,00 %
17.09.2023 11:06 21,3 C 22,2 C 16,1 C 97 % 1012,9 hPa 0,0 l/m 0 min 0 min 112 W/m 6,4 km/h (2 Bft) 100,00 %
17.09.2023 11:08 21,4 C 22,8 C 16,7 C 96 % 1013,0 hPa 0,0 l/m 0 min 0 min 168 W/m 6,4 km/h (2 Bft) 100,00 %
17.09.2023 11:10 21,6 C 22,8 C 16,7 C 96 % 1013,0 hPa 0,0 l/m 2 min 0 min 312 W/m 6,4 km/h (2 Bft) 97,87 %
17.09.2023 11:12 21,7 C 22,8 C 16,7 C 96 % 1012,9 hPa 0,0 l/m 0 min 0 min 228 W/m 12,9 km/h (3 Bft) 100,00 %
17.09.2023 11:14 21,7 C 23,3 C 16,7 C 95 % 1012,9 hPa 0,0 l/m 0 min 0 min 257 W/m 6,4 km/h (2 Bft) 97,87 %
17.09.2023 11:16 21,8 C 23,9 C 16,7 C 95 % 1012,9 hPa 0,0 l/m 2 min 0 min 346 W/m 6,4 km/h (2 Bft) 100,00 %
17.09.2023 11:18 21,9 C 24,4 C 16,7 C 95 % 1012,9 hPa 0,0 l/m 0 min 0 min 259 W/m 9,7 km/h (2 Bft) 100,00 %
17.09.2023 11:20 21,9 C 25,0 C 16,7 C 94 % 1013,0 hPa 0,0 l/m 0 min 0 min 186 W/m 9,7 km/h (2 Bft) 100,00 %
17.09.2023 11:22 22,1 C 24,4 C 16,7 C 93 % 1013,0 hPa 0,0 l/m 0 min 0 min 223 W/m 12,9 km/h (3 Bft) 97,87 %
17.09.2023 11:24 22,2 C 25,0 C 16,7 C 93 % 1013,1 hPa 0,0 l/m 0 min 0 min 267 W/m 3,2 km/h (1 Bft) 100,00 %
17.09.2023 11:26 22,3 C 26,1 C 16,7 C 92 % 1013,0 hPa 0,0 l/m 0 min 0 min 211 W/m 6,4 km/h (2 Bft) 100,00 %
17.09.2023 11:28 22,3 C 25,6 C 16,7 C 92 % 1013,1 hPa 0,0 l/m 0 min 0 min 209 W/m 9,7 km/h (2 Bft) 100,00 %
17.09.2023 11:30 22,4 C 25,0 C 16,7 C 91 % 1013,1 hPa 0,0 l/m 0 min 0 min 193 W/m 12,9 km/h (3 Bft) 100,00 %
17.09.2023 11:32 22,5 C 24,4 C 16,7 C 90 % 1013,1 hPa 0,0 l/m 0 min 0 min 191 W/m 19,3 km/h (3 Bft) 100,00 %
17.09.2023 11:34 22,6 C 24,4 C 16,7 C 90 % 1013,0 hPa 0,0 l/m 0 min 0 min 189 W/m 9,7 km/h (2 Bft) 100,00 %
17.09.2023 11:36 22,6 C 23,9 C 16,7 C 89 % 1013,0 hPa 0,0 l/m 0 min 0 min 179 W/m 19,3 km/h (3 Bft) 95,74 %
17.09.2023 11:38 22,7 C 23,9 C 16,7 C 89 % 1013,1 hPa 0,0 l/m 0 min 0 min 186 W/m 9,7 km/h (2 Bft) 100,00 %
17.09.2023 11:40 22,7 C 24,4 C 17,2 C 88 % 1013,1 hPa 0,0 l/m 0 min 0 min 213 W/m 12,9 km/h (3 Bft) 100,00 %
17.09.2023 11:42 22,8 C 24,4 C 17,8 C 88 % 1013,1 hPa 0,0 l/m 2 min 0 min 652 W/m 16,1 km/h (3 Bft) 100,00 %
17.09.2023 11:44 22,9 C 25,0 C 18,3 C 88 % 1013,1 hPa 0,0 l/m 2 min 0 min 652 W/m 12,9 km/h (3 Bft) 97,87 %
17.09.2023 11:46 23,1 C 24,4 C 18,3 C 87 % 1013,1 hPa 0,0 l/m 2 min 0 min 461 W/m 9,7 km/h (2 Bft) 97,87 %
17.09.2023 11:48 23,1 C 25,0 C 18,3 C 87 % 1013,1 hPa 0,0 l/m 0 min 0 min 236 W/m 9,7 km/h (2 Bft) 100,00 %
17.09.2023 11:50 23,2 C 27,2 C 18,9 C 86 % 1013,0 hPa 0,0 l/m 2 min 0 min 397 W/m 12,9 km/h (3 Bft) 100,00 %
17.09.2023 11:52 23,3 C 27,2 C 18,9 C 86 % 1013,1 hPa 0,0 l/m 2 min 0 min 700 W/m 9,7 km/h (2 Bft) 100,00 %
17.09.2023 11:54 23,4 C 27,8 C 18,9 C 86 % 1013,0 hPa 0,0 l/m 2 min 0 min 594 W/m 12,9 km/h (3 Bft) 97,87 %
17.09.2023 11:56 23,6 C 27,8 C 19,4 C 86 % 1013,1 hPa 0,0 l/m 2 min 0 min 594 W/m 9,7 km/h (2 Bft) 97,87 %
17.09.2023 11:58 23,7 C 26,1 C 18,9 C 85 % 1013,1 hPa 0,0 l/m 0 min 0 min 233 W/m 19,3 km/h (3 Bft) 97,87 %
17.09.2023 12:00 23,7 C 25,0 C 18,9 C 84 % 1013,1 hPa 0,0 l/m 0 min 0 min 144 W/m 16,1 km/h (3 Bft) 95,74 %
17.09.2023 12:02 23,6 C 24,4 C 18,3 C 84 % 1013,1 hPa 0,0 l/m 0 min 0 min 122 W/m 16,1 km/h (3 Bft) 95,74 %
17.09.2023 12:04 23,6 C 23,9 C 18,3 C 84 % 1013,0 hPa 0,0 l/m 0 min 0 min 121 W/m 12,9 km/h (3 Bft) 97,67 %
17.09.2023 12:08 23,6 C 23,3 C 18,3 C 83 % 1013,0 hPa 0,0 l/m 0 min 0 min 185 W/m 12,9 km/h (3 Bft) 95,05 %
17.09.2023 12:10 23,6 C 24,4 C 18,9 C 84 % 1013,0 hPa 0,0 l/m 2 min 0 min 320 W/m 12,9 km/h (3 Bft) 93,62 %
17.09.2023 12:12 23,7 C 25,0 C 18,9 C 85 % 1012,9 hPa 0,0 l/m 2 min 0 min 489 W/m 3,2 km/h (1 Bft) 93,62 %
17.09.2023 12:16 23,8 C 25,0 C 18,9 C 84 % 1012,9 hPa 0,0 l/m 4 min 0 min 387 W/m 12,9 km/h (3 Bft) 93,62 %
17.09.2023 12:18 23,9 C 25,0 C 18,9 C 83 % 1012,9 hPa 0,0 l/m 0 min 0 min 286 W/m 19,3 km/h (3 Bft) 93,62 %
17.09.2023 12:20 24,0 C 25,0 C 18,9 C 82 % 1012,9 hPa 0,0 l/m 0 min 0 min 124 W/m 12,9 km/h (3 Bft) 93,48 %
17.09.2023 12:22 24,1 C 24,4 C 18,9 C 83 % 1012,9 hPa 0,0 l/m 0 min 0 min 128 W/m 9,7 km/h (2 Bft) 93,62 %
17.09.2023 12:24 24,1 C 25,0 C 18,9 C 82 % 1012,8 hPa 0,0 l/m 0 min 0 min 170 W/m 9,7 km/h (2 Bft) 91,49 %
17.09.2023 12:26 24,2 C 25,0 C 18,3 C 82 % 1012,8 hPa 0,0 l/m 0 min 0 min 147 W/m 6,4 km/h (2 Bft) 93,62 %
17.09.2023 12:28 24,2 C 24,4 C 18,3 C 83 % 1012,8 hPa 0,0 l/m 0 min 0 min 139 W/m 12,9 km/h (3 Bft) 91,49 %
17.09.2023 12:30 24,2 C 24,4 C 18,3 C 82 % 1012,8 hPa 0,0 l/m 0 min 0 min 149 W/m 16,1 km/h (3 Bft) 93,62 %
17.09.2023 12:32 24,2 C 24,4 C 18,9 C 82 % 1012,8 hPa 0,0 l/m 0 min 0 min 183 W/m 6,4 km/h (2 Bft) 93,62 %
17.09.2023 12:34 24,2 C 24,4 C 18,9 C 82 % 1012,8 hPa 0,0 l/m 0 min 0 min 186 W/m 6,4 km/h (2 Bft) 93,62 %
17.09.2023 12:36 24,2 C 24,4 C 18,9 C 82 % 1012,8 hPa 0,0 l/m 0 min 0 min 198 W/m 12,9 km/h (3 Bft) 95,65 %
17.09.2023 12:38 24,3 C 25,0 C 19,4 C 83 % 1012,8 hPa 0,0 l/m 0 min 0 min 252 W/m 9,7 km/h (2 Bft) 93,62 %
17.09.2023 12:40 24,3 C 25,0 C 19,4 C 81 % 1012,9 hPa 0,0 l/m 0 min 0 min 263 W/m 16,1 km/h (3 Bft) 91,49 %
17.09.2023 12:42 24,4 C 25,0 C 19,4 C 81 % 1012,9 hPa 0,0 l/m 0 min 0 min 246 W/m 16,1 km/h (3 Bft) 93,62 %
17.09.2023 12:44 24,4 C 25,0 C 19,4 C 81 % 1012,8 hPa 0,0 l/m 0 min 0 min 232 W/m 9,7 km/h (2 Bft) 95,74 %
17.09.2023 12:46 24,4 C 24,4 C 19,4 C 80 % 1012,9 hPa 0,0 l/m 0 min 0 min 231 W/m 12,9 km/h (3 Bft) 93,62 %
17.09.2023 12:48 24,4 C 24,4 C 19,4 C 80 % 1012,9 hPa 0,0 l/m 0 min 0 min 214 W/m 6,4 km/h (2 Bft) 97,87 %
17.09.2023 12:50 24,4 C 24,4 C 19,4 C 80 % 1012,8 hPa 0,0 l/m 0 min 0 min 233 W/m 19,3 km/h (3 Bft) 95,74 %
17.09.2023 12:52 24,4 C 24,4 C 19,4 C 80 % 1012,7 hPa 0,0 l/m 0 min 0 min 243 W/m 16,1 km/h (3 Bft) 100,00 %
17.09.2023 12:54 24,4 C 24,4 C 19,4 C 80 % 1012,7 hPa 0,0 l/m 0 min 0 min 253 W/m 6,4 km/h (2 Bft) 97,87 %
17.09.2023 12:56 24,4 C 25,0 C 19,4 C 80 % 1012,7 hPa 0,0 l/m 0 min 0 min 299 W/m 12,9 km/h (3 Bft) 100,00 %
17.09.2023 12:58 24,4 C 25,0 C 19,4 C 80 % 1012,7 hPa 0,0 l/m 0 min 0 min 257 W/m 16,1 km/h (3 Bft) 100,00 %
17.09.2023 13:00 24,4 C 25,0 C 20,0 C 80 % 1012,7 hPa 0,0 l/m 0 min 0 min 252 W/m 16,1 km/h (3 Bft) 97,87 %
17.09.2023 13:02 24,4 C 24,4 C 19,4 C 80 % 1012,6 hPa 0,0 l/m 0 min 0 min 228 W/m 6,4 km/h (2 Bft) 100,00 %
17.09.2023 13:04 24,5 C 24,4 C 19,4 C 80 % 1012,6 hPa 0,0 l/m 0 min 0 min 200 W/m 6,4 km/h (2 Bft) 100,00 %
17.09.2023 13:06 24,5 C 24,4 C 20,0 C 80 % 1012,7 hPa 0,0 l/m 0 min 0 min 196 W/m 6,4 km/h (2 Bft) 100,00 %
17.09.2023 13:08 24,5 C 24,4 C 20,0 C 80 % 1012,7 hPa 0,0 l/m 0 min 0 min 246 W/m 12,9 km/h (3 Bft) 100,00 %
17.09.2023 13:10 24,6 C 24,4 C 20,0 C 80 % 1012,7 hPa 0,0 l/m 0 min 0 min 219 W/m 9,7 km/h (2 Bft) 97,87 %
17.09.2023 13:12 24,6 C 24,4 C 20,0 C 80 % 1012,7 hPa 0,0 l/m 0 min 0 min 188 W/m 12,9 km/h (3 Bft) 100,00 %
17.09.2023 13:14 24,6 C 24,4 C 20,0 C 80 % 1012,8 hPa 0,0 l/m 0 min 0 min 215 W/m 19,3 km/h (3 Bft) 100,00 %
17.09.2023 13:16 24,6 C 24,4 C 20,0 C 80 % 1012,7 hPa 0,0 l/m 0 min 0 min 260 W/m 16,1 km/h (3 Bft) 100,00 %
17.09.2023 13:18 24,6 C 24,4 C 20,0 C 80 % 1012,7 hPa 0,0 l/m 0 min 0 min 234 W/m 6,4 km/h (2 Bft) 100,00 %
17.09.2023 13:20 24,6 C 25,0 C 20,0 C 81 % 1012,7 hPa 0,0 l/m 0 min 0 min 278 W/m 6,4 km/h (2 Bft) 100,00 %
17.09.2023 13:22 24,7 C 25,0 C 20,0 C 81 % 1012,7 hPa 0,0 l/m 0 min 0 min 261 W/m 12,9 km/h (3 Bft) 100,00 %
17.09.2023 13:24 24,8 C 25,6 C 20,0 C 81 % 1012,7 hPa 0,0 l/m 0 min 0 min 280 W/m 12,9 km/h (3 Bft) 100,00 %
17.09.2023 13:26 24,8 C 25,6 C 20,6 C 81 % 1012,7 hPa 0,0 l/m 0 min 0 min 260 W/m 6,4 km/h (2 Bft) 100,00 %
17.09.2023 13:28 24,9 C 25,6 C 20,6 C 80 % 1012,8 hPa 0,0 l/m 0 min 0 min 249 W/m 12,9 km/h (3 Bft) 100,00 %
17.09.2023 13:30 25,0 C 25,6 C 20,6 C 79 % 1012,8 hPa 0,0 l/m 0 min 0 min 195 W/m 16,1 km/h (3 Bft) 100,00 %
17.09.2023 13:32 24,9 C 25,0 C 20,6 C 78 % 1012,8 hPa 0,0 l/m 0 min 0 min 203 W/m 19,3 km/h (3 Bft) 97,87 %
17.09.2023 13:34 25,0 C 25,0 C 20,6 C 78 % 1012,9 hPa 0,0 l/m 2 min 0 min 325 W/m 16,1 km/h (3 Bft) 100,00 %
17.09.2023 13:36 25,1 C 25,6 C 20,6 C 78 % 1012,8 hPa 0,0 l/m 0 min 0 min 282 W/m 22,5 km/h (4 Bft) 100,00 %
17.09.2023 13:38 25,1 C 25,6 C 20,6 C 78 % 1012,8 hPa 0,0 l/m 0 min 0 min 214 W/m 6,4 km/h (2 Bft) 100,00 %
17.09.2023 13:40 25,2 C 25,6 C 20,6 C 78 % 1012,8 hPa 0,0 l/m 0 min 0 min 239 W/m 6,4 km/h (2 Bft) 100,00 %
17.09.2023 13:42 25,2 C 25,6 C 20,6 C 78 % 1012,8 hPa 0,0 l/m 0 min 0 min 289 W/m 16,1 km/h (3 Bft) 100,00 %
17.09.2023 13:44 25,2 C 25,6 C 20,6 C 77 % 1012,8 hPa 0,0 l/m 0 min 0 min 294 W/m 6,4 km/h (2 Bft) 97,87 %
17.09.2023 13:46 25,3 C 26,1 C 20,6 C 76 % 1012,8 hPa 0,0 l/m 0 min 0 min 294 W/m 12,9 km/h (3 Bft) 100,00 %
17.09.2023 13:48 25,4 C 26,1 C 20,6 C 76 % 1012,7 hPa 0,0 l/m 2 min 0 min 418 W/m 19,3 km/h (3 Bft) 100,00 %
17.09.2023 13:50 25,4 C 26,1 C 20,6 C 76 % 1012,7 hPa 0,0 l/m 2 min 0 min 626 W/m 22,5 km/h (4 Bft) 97,87 %
17.09.2023 13:52 25,5 C 26,1 C 20,6 C 75 % 1012,7 hPa 0,0 l/m 2 min 0 min 739 W/m 12,9 km/h (3 Bft) 100,00 %
17.09.2023 13:54 25,6 C 26,1 C 20,6 C 76 % 1012,7 hPa 0,0 l/m 2 min 0 min 764 W/m 12,9 km/h (3 Bft) 100,00 %
17.09.2023 13:56 25,7 C 26,1 C 20,6 C 76 % 1012,7 hPa 0,0 l/m 2 min 0 min 726 W/m 6,4 km/h (2 Bft) 100,00 %
17.09.2023 13:58 25,8 C 26,7 C 20,6 C 77 % 1012,7 hPa 0,0 l/m 2 min 0 min 752 W/m 9,7 km/h (2 Bft) 97,87 %
17.09.2023 14:00 25,8 C 26,1 C 20,6 C 75 % 1012,8 hPa 0,0 l/m 2 min 0 min 378 W/m 16,1 km/h (3 Bft) 100,00 %
17.09.2023 14:02 25,8 C 26,1 C 20,6 C 75 % 1012,8 hPa 0,0 l/m 0 min 0 min 253 W/m 9,7 km/h (2 Bft) 97,87 %
17.09.2023 14:04 25,8 C 26,1 C 20,6 C 75 % 1012,8 hPa 0,0 l/m 0 min 0 min 245 W/m 16,1 km/h (3 Bft) 100,00 %
17.09.2023 14:06 25,9 C 26,1 C 20,6 C 75 % 1012,8 hPa 0,0 l/m 0 min 0 min 255 W/m 9,7 km/h (2 Bft) 98,31 %
17.09.2023 14:08 25,9 C 27,2 C 20,6 C 75 % 1012,8 hPa 0,0 l/m 2 min 0 min 334 W/m 9,7 km/h (2 Bft) 100,00 %
17.09.2023 14:10 25,9 C 27,8 C 20,6 C 75 % 1012,7 hPa 0,0 l/m 2 min 0 min 804 W/m 9,7 km/h (2 Bft) 97,87 %
17.09.2023 14:12 26,0 C 28,3 C 20,6 C 75 % 1012,8 hPa 0,0 l/m 2 min 0 min 742 W/m 12,9 km/h (3 Bft) 97,87 %
17.09.2023 14:14 26,1 C 28,3 C 20,6 C 75 % 1012,8 hPa 0,0 l/m 2 min 0 min 758 W/m 9,7 km/h (2 Bft) 97,83 %
17.09.2023 14:16 26,2 C 28,3 C 20,6 C 74 % 1012,7 hPa 0,0 l/m 2 min 0 min 789 W/m 12,9 km/h (3 Bft) 97,87 %
17.09.2023 14:18 26,2 C 28,3 C 20,6 C 73 % 1012,7 hPa 0,0 l/m 2 min 0 min 789 W/m 19,3 km/h (3 Bft) 95,74 %
17.09.2023 14:20 26,3 C 29,4 C 20,6 C 73 % 1012,7 hPa 0,0 l/m 2 min 0 min 796 W/m 12,9 km/h (3 Bft) 97,87 %
17.09.2023 14:22 26,3 C 28,9 C 20,6 C 73 % 1012,6 hPa 0,0 l/m 2 min 0 min 802 W/m 16,1 km/h (3 Bft) 100,00 %
17.09.2023 14:24 26,4 C 28,3 C 20,6 C 73 % 1012,7 hPa 0,0 l/m 2 min 0 min 815 W/m 22,5 km/h (4 Bft) 95,74 %
17.09.2023 14:26 26,5 C 28,3 C 21,1 C 72 % 1012,6 hPa 0,0 l/m 2 min 0 min 735 W/m 16,1 km/h (3 Bft) 97,87 %
17.09.2023 14:28 26,6 C 28,3 C 21,1 C 72 % 1012,7 hPa 0,0 l/m 2 min 0 min 355 W/m 16,1 km/h (3 Bft) 93,48 %
17.09.2023 14:30 26,6 C 27,8 C 21,1 C 72 % 1012,6 hPa 0,0 l/m 2 min 0 min 739 W/m 12,9 km/h (3 Bft) 95,74 %
17.09.2023 14:32 26,7 C 28,3 C 21,1 C 72 % 1012,6 hPa 0,0 l/m 2 min 0 min 767 W/m 6,4 km/h (2 Bft) 97,87 %
17.09.2023 14:34 26,8 C 28,9 C 21,1 C 72 % 1012,6 hPa 0,0 l/m 2 min 0 min 745 W/m 12,9 km/h (3 Bft) 97,87 %
17.09.2023 14:36 26,9 C 29,4 C 21,1 C 71 % 1012,6 hPa 0,0 l/m 2 min 0 min 746 W/m 6,4 km/h (2 Bft) 97,87 %
17.09.2023 14:38 26,9 C 28,3 C 21,1 C 71 % 1012,6 hPa 0,0 l/m 2 min 0 min 616 W/m 16,1 km/h (3 Bft) 97,87 %
17.09.2023 14:40 26,9 C 27,8 C 21,1 C 71 % 1012,6 hPa 0,0 l/m 2 min 0 min 470 W/m 12,9 km/h (3 Bft) 95,74 %
17.09.2023 14:42 26,9 C 27,2 C 21,1 C 71 % 1012,7 hPa 0,0 l/m 2 min 0 min 579 W/m 19,3 km/h (3 Bft) 97,87 %
17.09.2023 14:44 26,9 C 27,2 C 20,6 C 71 % 1012,6 hPa 0,0 l/m 2 min 0 min 567 W/m 16,1 km/h (3 Bft) 95,65 %
17.09.2023 14:46 26,9 C 27,2 C 20,6 C 71 % 1012,6 hPa 0,0 l/m 2 min 0 min 570 W/m 12,9 km/h (3 Bft) 97,87 %
17.09.2023 14:48 26,9 C 26,7 C 20,6 C 71 % 1012,6 hPa 0,0 l/m 2 min 0 min 587 W/m 12,9 km/h (3 Bft) 97,87 %
17.09.2023 14:50 27,0 C 27,2 C 20,6 C 72 % 1012,5 hPa 0,0 l/m 2 min 0 min 572 W/m 12,9 km/h (3 Bft) 93,62 %
17.09.2023 14:52 27,0 C 26,7 C 20,6 C 71 % 1012,6 hPa 0,0 l/m 2 min 0 min 502 W/m 16,1 km/h (3 Bft) 97,87 %
17.09.2023 14:54 27,0 C 26,7 C 20,6 C 71 % 1012,6 hPa 0,0 l/m 2 min 0 min 537 W/m 6,4 km/h (2 Bft) 97,87 %
17.09.2023 14:56 26,9 C 26,7 C 20,6 C 71 % 1012,6 hPa 0,0 l/m 2 min 0 min 589 W/m 12,9 km/h (3 Bft) 97,87 %
17.09.2023 14:58 26,9 C 26,7 C 20,6 C 71 % 1012,6 hPa 0,0 l/m 2 min 0 min 590 W/m 12,9 km/h (3 Bft) 97,87 %
17.09.2023 15:00 26,9 C 26,7 C 20,6 C 71 % 1012,6 hPa 0,0 l/m 2 min 0 min 566 W/m 9,7 km/h (2 Bft) 95,65 %
17.09.2023 15:02 26,9 C 26,7 C 20,6 C 70 % 1012,6 hPa 0,0 l/m 2 min 0 min 529 W/m 12,9 km/h (3 Bft) 95,74 %
17.09.2023 15:04 26,9 C 26,7 C 20,6 C 70 % 1012,6 hPa 0,0 l/m 2 min 0 min 533 W/m 12,9 km/h (3 Bft) 93,02 %
17.09.2023 15:06 26,9 C 26,1 C 20,6 C 70 % 1012,5 hPa 0,0 l/m 0 min 0 min 222 W/m 12,9 km/h (3 Bft) 97,87 %
17.09.2023 15:08 26,8 C 26,1 C 20,6 C 70 % 1012,5 hPa 0,0 l/m 0 min 0 min 197 W/m 9,7 km/h (2 Bft) 93,62 %
17.09.2023 15:10 26,8 C 26,1 C 20,6 C 71 % 1012,5 hPa 0,0 l/m 0 min 0 min 213 W/m 12,9 km/h (3 Bft) 95,74 %
17.09.2023 15:12 26,8 C 26,1 C 20,6 C 71 % 1012,5 hPa 0,0 l/m 0 min 0 min 224 W/m 12,9 km/h (3 Bft) 93,62 %
17.09.2023 15:14 26,8 C 26,1 C 20,6 C 72 % 1012,5 hPa 0,0 l/m 0 min 0 min 218 W/m 6,4 km/h (2 Bft) 93,62 %
17.09.2023 15:16 26,7 C 26,1 C 20,6 C 71 % 1012,5 hPa 0,0 l/m 0 min 0 min 263 W/m 6,4 km/h (2 Bft) 95,74 %
17.09.2023 15:18 26,7 C 26,1 C 20,6 C 70 % 1012,5 hPa 0,0 l/m 2 min 0 min 384 W/m 6,4 km/h (2 Bft) 91,30 %
17.09.2023 15:20 26,7 C 26,7 C 20,6 C 71 % 1012,3 hPa 0,0 l/m 2 min 0 min 441 W/m 3,2 km/h (1 Bft) 93,62 %
17.09.2023 15:22 26,7 C 26,1 C 20,6 C 72 % 1012,4 hPa 0,0 l/m 2 min 0 min 392 W/m 9,7 km/h (2 Bft) 93,62 %
17.09.2023 15:24 26,7 C 26,1 C 20,6 C 71 % 1012,4 hPa 0,0 l/m 2 min 0 min 314 W/m 6,4 km/h (2 Bft) 95,74 %
17.09.2023 15:26 26,7 C 26,1 C 20,6 C 72 % 1012,4 hPa 0,0 l/m 2 min 0 min 352 W/m 6,4 km/h (2 Bft) 95,74 %
17.09.2023 15:28 26,7 C 26,1 C 20,6 C 72 % 1012,4 hPa 0,0 l/m 2 min 0 min 387 W/m 6,4 km/h (2 Bft) 97,87 %
17.09.2023 15:30 26,7 C 26,1 C 20,6 C 72 % 1012,4 hPa 0,0 l/m 2 min 0 min 319 W/m 6,4 km/h (2 Bft) 97,87 %
17.09.2023 15:32 26,6 C 26,1 C 20,6 C 72 % 1012,4 hPa 0,0 l/m 2 min 0 min 321 W/m 6,4 km/h (2 Bft) 95,74 %
17.09.2023 15:34 26,6 C 26,1 C 20,6 C 72 % 1012,3 hPa 0,0 l/m 2 min 0 min 357 W/m 12,9 km/h (3 Bft) 97,83 %
17.09.2023 15:36 26,6 C 26,1 C 20,6 C 72 % 1012,3 hPa 0,0 l/m 2 min 0 min 406 W/m 9,7 km/h (2 Bft) 97,87 %
17.09.2023 15:38 26,6 C 26,1 C 20,6 C 72 % 1012,2 hPa 0,0 l/m 2 min 0 min 410 W/m 6,4 km/h (2 Bft) 97,87 %
17.09.2023 15:40 26,6 C 26,1 C 20,6 C 72 % 1012,2 hPa 0,0 l/m 2 min 0 min 393 W/m 6,4 km/h (2 Bft) 95,74 %
17.09.2023 15:42 26,6 C 26,1 C 20,6 C 72 % 1012,2 hPa 0,0 l/m 2 min 0 min 346 W/m 9,7 km/h (2 Bft) 95,74 %
17.09.2023 15:44 26,6 C 26,1 C 20,6 C 72 % 1012,2 hPa 0,0 l/m 2 min 0 min 288 W/m 6,4 km/h (2 Bft) 97,87 %
17.09.2023 15:46 26,6 C 26,1 C 20,6 C 72 % 1012,1 hPa 0,0 l/m 0 min 0 min 263 W/m 12,9 km/h (3 Bft) 97,87 %
17.09.2023 15:48 26,5 C 26,1 C 20,6 C 71 % 1012,1 hPa 0,0 l/m 0 min 0 min 263 W/m 6,4 km/h (2 Bft) 95,74 %
17.09.2023 15:50 26,5 C 26,1 C 20,6 C 72 % 1012,1 hPa 0,0 l/m 2 min 0 min 273 W/m 6,4 km/h (2 Bft) 97,83 %
17.09.2023 15:52 26,5 C 26,1 C 20,6 C 72 % 1012,1 hPa 0,0 l/m 2 min 0 min 274 W/m 6,4 km/h (2 Bft) 95,74 %
17.09.2023 15:54 26,5 C 26,1 C 20,6 C 72 % 1012,1 hPa 0,0 l/m 2 min 0 min 270 W/m 6,4 km/h (2 Bft) 97,87 %
17.09.2023 15:56 26,5 C 26,7 C 20,6 C 72 % 1012,2 hPa 0,0 l/m 2 min 0 min 270 W/m 12,9 km/h (3 Bft) 97,87 %
17.09.2023 15:58 26,4 C 26,1 C 20,6 C 71 % 1012,1 hPa 0,0 l/m 2 min 0 min 279 W/m 9,7 km/h (2 Bft) 100,00 %
17.09.2023 16:00 26,4 C 26,1 C 21,1 C 71 % 1012,2 hPa 0,0 l/m 2 min 0 min 287 W/m 9,7 km/h (2 Bft) 97,87 %
17.09.2023 16:02 26,4 C 26,1 C 21,1 C 71 % 1012,2 hPa 0,0 l/m 2 min 0 min 293 W/m 3,2 km/h (1 Bft) 97,87 %
17.09.2023 16:04 26,4 C 26,1 C 21,1 C 71 % 1012,2 hPa 0,0 l/m 2 min 0 min 301 W/m 9,7 km/h (2 Bft) 98,00 %
17.09.2023 16:06 26,4 C 26,1 C 21,1 C 71 % 1012,2 hPa 0,0 l/m 2 min 0 min 297 W/m 3,2 km/h (1 Bft) 97,87 %
17.09.2023 16:08 26,4 C 26,1 C 21,1 C 71 % 1012,2 hPa 0,0 l/m 2 min 0 min 294 W/m 6,4 km/h (2 Bft) 97,87 %
17.09.2023 16:10 26,4 C 26,1 C 21,1 C 71 % 1012,2 hPa 0,0 l/m 2 min 0 min 271 W/m 12,9 km/h (3 Bft) 97,87 %
17.09.2023 16:12 26,4 C 26,1 C 21,1 C 72 % 1012,2 hPa 0,0 l/m 2 min 0 min 250 W/m 16,1 km/h (3 Bft) 97,87 %
17.09.2023 16:14 26,4 C 26,1 C 21,1 C 72 % 1012,2 hPa 0,0 l/m 0 min 0 min 237 W/m 3,2 km/h (1 Bft) 97,87 %
17.09.2023 16:16 26,4 C 26,1 C 21,1 C 71 % 1012,2 hPa 0,0 l/m 0 min 0 min 224 W/m 9,7 km/h (2 Bft) 97,87 %
17.09.2023 16:18 26,4 C 26,1 C 20,6 C 72 % 1012,2 hPa 0,0 l/m 0 min 0 min 210 W/m 6,4 km/h (2 Bft) 97,83 %
17.09.2023 16:20 26,4 C 26,1 C 20,6 C 72 % 1012,2 hPa 0,0 l/m 0 min 0 min 202 W/m 9,7 km/h (2 Bft) 97,87 %
17.09.2023 16:22 26,3 C 26,1 C 20,6 C 72 % 1012,2 hPa 0,0 l/m 0 min 0 min 200 W/m 12,9 km/h (3 Bft) 97,87 %
17.09.2023 16:24 26,3 C 25,6 C 20,6 C 71 % 1012,1 hPa 0,0 l/m 0 min 0 min 204 W/m 6,4 km/h (2 Bft) 95,74 %
17.09.2023 16:26 26,3 C 25,6 C 20,6 C 72 % 1012,1 hPa 0,0 l/m 0 min 0 min 207 W/m 12,9 km/h (3 Bft) 97,87 %
17.09.2023 16:28 26,3 C 25,6 C 20,6 C 72 % 1012,1 hPa 0,0 l/m 0 min 0 min 208 W/m 6,4 km/h (2 Bft) 95,74 %
17.09.2023 16:30 26,2 C 25,6 C 20,6 C 71 % 1012,1 hPa 0,0 l/m 0 min 0 min 213 W/m 6,4 km/h (2 Bft) 97,87 %
17.09.2023 16:32 26,2 C 25,6 C 20,6 C 72 % 1012,1 hPa 0,0 l/m 0 min 0 min 216 W/m 3,2 km/h (1 Bft) 97,87 %
17.09.2023 16:34 26,2 C 25,6 C 20,6 C 72 % 1012,1 hPa 0,0 l/m 0 min 0 min 209 W/m 3,2 km/h (1 Bft) 97,83 %
17.09.2023 16:36 26,2 C 25,6 C 20,6 C 72 % 1012,1 hPa 0,0 l/m 0 min 0 min 203 W/m 3,2 km/h (1 Bft) 100,00 %
17.09.2023 16:38 26,2 C 25,6 C 20,6 C 72 % 1012,1 hPa 0,0 l/m 0 min 0 min 197 W/m 3,2 km/h (1 Bft) 95,74 %
17.09.2023 16:40 26,2 C 25,6 C 20,6 C 72 % 1012,0 hPa 0,0 l/m 0 min 0 min 194 W/m 3,2 km/h (1 Bft) 97,87 %
17.09.2023 16:46 26,2 C 25,6 C 20,6 C 71 % 1012,0 hPa 0,0 l/m 0 min 0 min 210 W/m 9,7 km/h (2 Bft) 97,50 %
17.09.2023 16:48 26,1 C 25,6 C 20,6 C 71 % 1012,0 hPa 0,0 l/m 0 min 0 min 211 W/m 6,4 km/h (2 Bft) 100,00 %
17.09.2023 16:50 26,1 C 25,6 C 20,6 C 71 % 1012,0 hPa 0,0 l/m 2 min 0 min 214 W/m 6,4 km/h (2 Bft) 100,00 %
17.09.2023 16:52 26,1 C 25,6 C 20,6 C 71 % 1011,9 hPa 0,0 l/m 2 min 0 min 219 W/m 3,2 km/h (1 Bft) 100,00 %
17.09.2023 16:54 26,1 C 26,1 C 20,6 C 71 % 1011,9 hPa 0,0 l/m 2 min 0 min 210 W/m 3,2 km/h (1 Bft) 100,00 %
17.09.2023 16:56 26,1 C 25,6 C 20,6 C 72 % 1011,9 hPa 0,0 l/m 0 min 0 min 202 W/m 3,2 km/h (1 Bft) 100,00 %
17.09.2023 16:58 26,1 C 25,6 C 20,6 C 72 % 1011,9 hPa 0,0 l/m 0 min 0 min 195 W/m 3,2 km/h (1 Bft) 100,00 %
17.09.2023 17:00 26,1 C 25,6 C 20,6 C 72 % 1011,9 hPa 0,0 l/m 0 min 0 min 191 W/m 6,4 km/h (2 Bft) 100,00 %
17.09.2023 17:02 26,1 C 25,6 C 20,6 C 71 % 1011,9 hPa 0,0 l/m 0 min 0 min 182 W/m 6,4 km/h (2 Bft) 100,00 %
17.09.2023 17:04 26,1 C 25,6 C 20,6 C 71 % 1011,8 hPa 0,0 l/m 0 min 0 min 170 W/m 3,2 km/h (1 Bft) 100,00 %
17.09.2023 17:06 26,1 C 25,6 C 20,6 C 72 % 1011,8 hPa 0,0 l/m 0 min 0 min 167 W/m 6,4 km/h (2 Bft) 100,00 %
17.09.2023 17:08 26,1 C 25,6 C 20,6 C 71 % 1011,8 hPa 0,0 l/m 0 min 0 min 166 W/m 6,4 km/h (2 Bft) 100,00 %
17.09.2023 17:10 26,0 C 25,6 C 20,6 C 72 % 1011,9 hPa 0,0 l/m 0 min 0 min 165 W/m 6,4 km/h (2 Bft) 100,00 %
17.09.2023 17:12 26,0 C 25,6 C 20,0 C 72 % 1011,8 hPa 0,0 l/m 0 min 0 min 165 W/m 3,2 km/h (1 Bft) 100,00 %
17.09.2023 17:14 25,9 C 25,0 C 20,6 C 72 % 1011,8 hPa 0,0 l/m 0 min 0 min 164 W/m 3,2 km/h (1 Bft) 100,00 %
17.09.2023 17:16 25,9 C 25,0 C 20,0 C 73 % 1011,9 hPa 0,0 l/m 0 min 0 min 162 W/m 6,4 km/h (2 Bft) 100,00 %
17.09.2023 17:18 25,9 C 25,0 C 20,0 C 73 % 1011,9 hPa 0,0 l/m 0 min 0 min 158 W/m 3,2 km/h (1 Bft) 100,00 %
17.09.2023 17:20 25,9 C 25,0 C 20,0 C 72 % 1011,9 hPa 0,0 l/m 0 min 0 min 154 W/m 0,0 km/h (0 Bft) 97,83 %
17.09.2023 17:22 25,9 C 25,6 C 20,0 C 73 % 1011,9 hPa 0,0 l/m 0 min 0 min 151 W/m 3,2 km/h (1 Bft) 97,87 %
17.09.2023 17:24 25,9 C 25,0 C 20,0 C 72 % 1011,9 hPa 0,0 l/m 0 min 0 min 148 W/m 3,2 km/h (1 Bft) 97,87 %
17.09.2023 17:26 25,9 C 25,0 C 20,0 C 73 % 1011,9 hPa 0,0 l/m 0 min 0 min 143 W/m 6,4 km/h (2 Bft) 97,87 %
17.09.2023 17:28 25,9 C 25,0 C 20,0 C 72 % 1012,0 hPa 0,0 l/m 0 min 0 min 142 W/m 6,4 km/h (2 Bft) 97,87 %
17.09.2023 17:30 25,8 C 25,0 C 20,0 C 72 % 1011,9 hPa 0,0 l/m 0 min 0 min 140 W/m 3,2 km/h (1 Bft) 97,67 %
17.09.2023 17:32 25,8 C 25,0 C 20,0 C 72 % 1011,9 hPa 0,0 l/m 0 min 0 min 138 W/m 3,2 km/h (1 Bft) 95,74 %
17.09.2023 17:34 25,8 C 25,0 C 20,0 C 72 % 1011,9 hPa 0,0 l/m 0 min 0 min 133 W/m 3,2 km/h (1 Bft) 97,87 %
17.09.2023 17:36 25,8 C 25,0 C 20,0 C 72 % 1011,9 hPa 0,0 l/m 0 min 0 min 128 W/m 3,2 km/h (1 Bft) 95,74 %
17.09.2023 17:38 25,8 C 25,0 C 20,0 C 72 % 1011,9 hPa 0,0 l/m 0 min 0 min 126 W/m 3,2 km/h (1 Bft) 95,65 %
17.09.2023 17:40 25,8 C 25,0 C 20,0 C 73 % 1011,9 hPa 0,0 l/m 0 min 0 min 123 W/m 3,2 km/h (1 Bft) 97,87 %
17.09.2023 17:42 25,8 C 25,0 C 20,0 C 72 % 1011,9 hPa 0,0 l/m 0 min 0 min 120 W/m 3,2 km/h (1 Bft) 97,87 %
17.09.2023 17:44 25,8 C 25,0 C 20,0 C 73 % 1011,9 hPa 0,0 l/m 0 min 0 min 115 W/m 0,0 km/h (0 Bft) 97,87 %
17.09.2023 17:46 25,8 C 25,0 C 20,0 C 74 % 1011,9 hPa 0,0 l/m 0 min 0 min 114 W/m 0,0 km/h (0 Bft) 97,87 %
17.09.2023 17:48 25,8 C 25,0 C 19,4 C 74 % 1011,8 hPa 0,0 l/m 0 min 0 min 115 W/m 3,2 km/h (1 Bft) 93,62 %
17.09.2023 17:50 25,8 C 25,0 C 19,4 C 73 % 1011,8 hPa 0,0 l/m 0 min 0 min 114 W/m 0,0 km/h (0 Bft) 97,83 %
17.09.2023 17:52 25,8 C 25,0 C 19,4 C 74 % 1011,8 hPa 0,0 l/m 0 min 0 min 111 W/m 3,2 km/h (1 Bft) 97,87 %
17.09.2023 17:54 25,7 C 25,0 C 19,4 C 74 % 1011,7 hPa 0,0 l/m 0 min 0 min 108 W/m 0,0 km/h (0 Bft) 93,62 %
17.09.2023 17:56 25,7 C 24,4 C 19,4 C 75 % 1011,7 hPa 0,0 l/m 0 min 0 min 102 W/m 0,0 km/h (0 Bft) 98,04 %
17.09.2023 17:58 25,8 C 24,4 C 19,4 C 75 % 1011,7 hPa 0,0 l/m 0 min 0 min 97 W/m 0,0 km/h (0 Bft) 97,73 %
17.09.2023 18:00 25,8 C 24,4 C 19,4 C 77 % 1011,6 hPa 0,0 l/m 0 min 0 min 94 W/m 0,0 km/h (0 Bft) 97,22 %
17.09.2023 18:02 25,8 C 24,4 C 19,4 C 77 % 1011,7 hPa 0,0 l/m 0 min 0 min 92 W/m 0,0 km/h (0 Bft) 94,74 %
17.09.2023 18:04 25,8 C 24,4 C 18,9 C 77 % 1011,6 hPa 0,0 l/m 0 min 0 min 91 W/m 0,0 km/h (0 Bft) 93,62 %
17.09.2023 18:08 25,7 C 24,4 C 18,9 C 79 % 1011,6 hPa 0,0 l/m 0 min 0 min 89 W/m 0,0 km/h (0 Bft) 97,70 %
17.09.2023 18:10 25,7 C 23,9 C 18,9 C 79 % 1011,6 hPa 0,0 l/m 0 min 0 min 86 W/m 0,0 km/h (0 Bft) 96,30 %
17.09.2023 18:12 25,7 C 23,9 C 18,9 C 78 % 1011,7 hPa 0,0 l/m 0 min 0 min 83 W/m 3,2 km/h (1 Bft) 96,00 %
17.09.2023 18:16 25,6 C 23,9 C 18,9 C 79 % 1011,7 hPa 0,0 l/m 0 min 0 min 80 W/m 0,0 km/h (0 Bft) 96,84 %
17.09.2023 18:18 25,6 C 23,9 C 18,9 C 79 % 1011,6 hPa 0,0 l/m 0 min 0 min 77 W/m 0,0 km/h (0 Bft) 94,29 %
17.09.2023 18:20 25,6 C 23,9 C 18,9 C 79 % 1011,6 hPa 0,0 l/m 0 min 0 min 76 W/m 0,0 km/h (0 Bft) 96,61 %
17.09.2023 18:22 25,6 C 23,9 C 18,9 C 80 % 1011,6 hPa 0,0 l/m 0 min 0 min 73 W/m 0,0 km/h (0 Bft) 95,74 %
17.09.2023 18:24 25,6 C 23,9 C 18,9 C 80 % 1011,6 hPa 0,0 l/m 0 min 0 min 70 W/m 0,0 km/h (0 Bft) 95,65 %
17.09.2023 18:26 25,5 C 23,9 C 18,9 C 79 % 1011,6 hPa 0,0 l/m 0 min 0 min 69 W/m 0,0 km/h (0 Bft) 91,67 %
17.09.2023 18:28 25,4 C 23,9 C 18,9 C 79 % 1011,7 hPa 0,0 l/m 0 min 0 min 69 W/m 0,0 km/h (0 Bft) 93,10 %
17.09.2023 18:30 25,4 C 23,9 C 18,9 C 79 % 1011,7 hPa 0,0 l/m 0 min 0 min 68 W/m 0,0 km/h (0 Bft) 95,74 %
17.09.2023 18:32 25,3 C 23,9 C 18,9 C 79 % 1011,6 hPa 0,0 l/m 0 min 0 min 67 W/m 0,0 km/h (0 Bft) 97,14 %
17.09.2023 18:34 25,3 C 23,3 C 18,9 C 80 % 1011,7 hPa 0,0 l/m 0 min 0 min 67 W/m 0,0 km/h (0 Bft) 97,87 %
17.09.2023 18:36 25,2 C 23,3 C 18,9 C 80 % 1011,6 hPa 0,0 l/m 0 min 0 min 64 W/m 0,0 km/h (0 Bft) 95,74 %
17.09.2023 18:38 25,2 C 23,3 C 18,9 C 80 % 1011,7 hPa 0,0 l/m 0 min 0 min 62 W/m 0,0 km/h (0 Bft) 97,87 %
17.09.2023 18:40 25,2 C 23,3 C 18,3 C 81 % 1011,7 hPa 0,0 l/m 0 min 0 min 61 W/m 0,0 km/h (0 Bft) 97,83 %
17.09.2023 18:42 25,2 C 23,3 C 18,3 C 82 % 1011,6 hPa 0,0 l/m 0 min 0 min 59 W/m 0,0 km/h (0 Bft) 97,87 %
17.09.2023 18:44 25,2 C 23,3 C 18,3 C 82 % 1011,6 hPa 0,0 l/m 0 min 0 min 57 W/m 0,0 km/h (0 Bft) 97,87 %
17.09.2023 18:46 25,2 C 23,3 C 18,3 C 82 % 1011,6 hPa 0,0 l/m 0 min 0 min 55 W/m 0,0 km/h (0 Bft) 97,87 %
17.09.2023 18:48 25,1 C 23,3 C 18,3 C 82 % 1011,7 hPa 0,0 l/m 0 min 0 min 54 W/m 0,0 km/h (0 Bft) 97,87 %
17.09.2023 18:50 25,1 C 23,3 C 18,3 C 83 % 1011,6 hPa 0,0 l/m 0 min 0 min 51 W/m 0,0 km/h (0 Bft) 97,87 %
17.09.2023 18:52 25,1 C 23,3 C 18,3 C 83 % 1011,6 hPa 0,0 l/m 0 min 0 min 47 W/m 0,0 km/h (0 Bft) 97,87 %
17.09.2023 18:54 25,0 C 23,3 C 18,3 C 83 % 1011,7 hPa 0,0 l/m 0 min 0 min 43 W/m 0,0 km/h (0 Bft) 95,65 %
17.09.2023 18:56 24,9 C 22,8 C 18,3 C 83 % 1011,7 hPa 0,0 l/m 0 min 0 min 39 W/m 0,0 km/h (0 Bft) 97,96 %
17.09.2023 18:58 24,9 C 22,8 C 18,3 C 83 % 1011,7 hPa 0,0 l/m 0 min 0 min 35 W/m 0,0 km/h (0 Bft) 97,56 %
17.09.2023 19:00 24,8 C 22,8 C 18,3 C 83 % 1011,7 hPa 0,0 l/m 0 min 0 min 33 W/m 0,0 km/h (0 Bft) 95,74 %
17.09.2023 19:02 24,8 C 22,8 C 18,3 C 83 % 1011,6 hPa 0,0 l/m 0 min 0 min 32 W/m 0,0 km/h (0 Bft) 97,83 %
17.09.2023 19:04 24,8 C 22,8 C 18,3 C 84 % 1011,5 hPa 0,0 l/m 0 min 0 min 30 W/m 0,0 km/h (0 Bft) 98,08 %
17.09.2023 19:06 24,7 C 22,8 C 17,8 C 84 % 1011,5 hPa 0,0 l/m 0 min 0 min 29 W/m 0,0 km/h (0 Bft) 95,74 %
17.09.2023 19:08 24,7 C 22,2 C 17,8 C 84 % 1011,5 hPa 0,0 l/m 0 min 0 min 28 W/m 0,0 km/h (0 Bft) 97,87 %
17.09.2023 19:10 24,6 C 22,2 C 17,8 C 84 % 1011,4 hPa 0,0 l/m 0 min 0 min 26 W/m 0,0 km/h (0 Bft) 97,87 %
17.09.2023 19:12 24,6 C 22,2 C 17,8 C 84 % 1011,3 hPa 0,0 l/m 0 min 0 min 26 W/m 0,0 km/h (0 Bft) 100,00 %
17.09.2023 19:14 24,6 C 22,2 C 17,8 C 84 % 1011,4 hPa 0,0 l/m 0 min 0 min 25 W/m 0,0 km/h (0 Bft) 100,00 %
17.09.2023 19:16 24,5 C 22,2 C 17,8 C 84 % 1011,4 hPa 0,0 l/m 0 min 0 min 23 W/m 0,0 km/h (0 Bft) 100,00 %
17.09.2023 19:18 24,4 C 22,2 C 17,8 C 84 % 1011,4 hPa 0,0 l/m 0 min 0 min 21 W/m 0,0 km/h (0 Bft) 100,00 %
17.09.2023 19:20 24,3 C 22,2 C 17,8 C 85 % 1011,4 hPa 0,0 l/m 0 min 0 min 19 W/m 0,0 km/h (0 Bft) 100,00 %
17.09.2023 19:22 24,3 C 21,7 C 17,8 C 85 % 1011,4 hPa 0,0 l/m 0 min 0 min 17 W/m 0,0 km/h (0 Bft) 100,00 %
17.09.2023 19:24 24,2 C 21,7 C 17,8 C 85 % 1011,3 hPa 0,0 l/m 0 min 0 min 15 W/m 0,0 km/h (0 Bft) 97,87 %
17.09.2023 19:26 24,2 C 21,7 C 17,8 C 85 % 1011,3 hPa 0,0 l/m 0 min 0 min 14 W/m 0,0 km/h (0 Bft) 100,00 %
17.09.2023 19:28 24,1 C 21,7 C 17,8 C 85 % 1011,3 hPa 0,0 l/m 0 min 0 min 12 W/m 0,0 km/h (0 Bft) 100,00 %
17.09.2023 19:30 24,0 C 21,7 C 17,2 C 85 % 1011,3 hPa 0,0 l/m 0 min 0 min 11 W/m 0,0 km/h (0 Bft) 100,00 %
17.09.2023 19:32 23,9 C 21,7 C 17,2 C 85 % 1011,3 hPa 0,0 l/m 0 min 0 min 8 W/m 0,0 km/h (0 Bft) 100,00 %
17.09.2023 19:34 23,8 C 21,1 C 17,2 C 85 % 1011,3 hPa 0,0 l/m 0 min 0 min 7 W/m 0,0 km/h (0 Bft) 100,00 %
17.09.2023 19:36 23,8 C 21,1 C 17,2 C 85 % 1011,2 hPa 0,0 l/m 0 min 0 min 5 W/m 0,0 km/h (0 Bft) 100,00 %
17.09.2023 19:38 23,7 C 21,1 C 17,2 C 85 % 1011,3 hPa 0,0 l/m 0 min 0 min 5 W/m 0,0 km/h (0 Bft) 100,00 %
17.09.2023 19:40 23,6 C 21,1 C 17,2 C 86 % 1011,2 hPa 0,0 l/m 0 min 0 min 1 W/m 0,0 km/h (0 Bft) 100,00 %
17.09.2023 19:42 23,6 C 21,1 C 17,2 C 86 % 1011,2 hPa 0,0 l/m 0 min 0 min 0 W/m 0,0 km/h (0 Bft) 97,83 %
17.09.2023 19:44 23,5 C 21,1 C 17,2 C 86 % 1011,2 hPa 0,0 l/m 0 min 0 min 0 W/m 0,0 km/h (0 Bft) 100,00 %
17.09.2023 19:46 23,4 C 21,1 C 17,2 C 86 % 1011,2 hPa 0,0 l/m 0 min 0 min 0 W/m 0,0 km/h (0 Bft) 97,87 %
17.09.2023 19:48 23,4 C 21,1 C 17,2 C 86 % 1011,1 hPa 0,0 l/m 0 min 0 min 0 W/m 0,0 km/h (0 Bft) 100,00 %
17.09.2023 19:50 23,3 C 20,6 C 17,2 C 86 % 1011,1 hPa 0,0 l/m 0 min 0 min 0 W/m 0,0 km/h (0 Bft) 100,00 %
17.09.2023 19:52 23,2 C 20,6 C 17,2 C 87 % 1011,1 hPa 0,0 l/m 0 min 0 min 0 W/m 0,0 km/h (0 Bft) 100,00 %
17.09.2023 19:54 23,2 C 20,6 C 16,7 C 87 % 1011,1 hPa 0,0 l/m 0 min 0 min 0 W/m 0,0 km/h (0 Bft) 100,00 %
17.09.2023 19:56 23,1 C 20,6 C 16,7 C 87 % 1011,1 hPa 0,0 l/m 0 min 0 min 0 W/m 0,0 km/h (0 Bft) 93,48 %
17.09.2023 19:58 23,1 C 20,6 C 16,7 C 87 % 1011,2 hPa 0,0 l/m 0 min 0 min 0 W/m 0,0 km/h (0 Bft) 93,62 %
17.09.2023 20:00 23,1 C 20,6 C 16,7 C 88 % 1011,1 hPa 0,0 l/m 0 min 0 min 0 W/m 0,0 km/h (0 Bft) 95,74 %
17.09.2023 20:02 22,9 C 20,6 C 16,7 C 88 % 1011,1 hPa 0,0 l/m 0 min 0 min 0 W/m 0,0 km/h (0 Bft) 93,62 %
17.09.2023 20:04 22,9 C 20,6 C 16,7 C 88 % 1011,0 hPa 0,0 l/m 0 min 0 min 0 W/m 0,0 km/h (0 Bft) 93,75 %
17.09.2023 20:06 22,8 C 20,6 C 16,7 C 88 % 1011,0 hPa 0,0 l/m 0 min 0 min 0 W/m 0,0 km/h (0 Bft) 95,74 %
17.09.2023 20:08 22,8 C 20,6 C 16,7 C 88 % 1011,0 hPa 0,0 l/m 0 min 0 min 0 W/m 0,0 km/h (0 Bft) 95,74 %
17.09.2023 20:10 22,8 C 20,6 C 16,7 C 89 % 1011,0 hPa 0,0 l/m 0 min 0 min 0 W/m 0,0 km/h (0 Bft) 95,65 %
17.09.2023 20:12 22,7 C 20,6 C 16,7 C 89 % 1011,0 hPa 0,0 l/m 0 min 0 min 0 W/m 0,0 km/h (0 Bft) 95,74 %
17.09.2023 20:14 22,7 C 20,0 C 16,7 C 89 % 1011,0 hPa 0,0 l/m 0 min 0 min 0 W/m 0,0 km/h (0 Bft) 93,75 %
17.09.2023 20:16 22,6 C 20,0 C 16,7 C 89 % 1011,0 hPa 0,0 l/m 0 min 0 min 0 W/m 0,0 km/h (0 Bft) 93,62 %
17.09.2023 20:18 22,6 C 20,0 C 16,7 C 89 % 1011,0 hPa 0,0 l/m 0 min 0 min 0 W/m 0,0 km/h (0 Bft) 95,74 %
17.09.2023 20:20 22,5 C 20,0 C 16,7 C 89 % 1011,1 hPa 0,0 l/m 0 min 0 min 0 W/m 0,0 km/h (0 Bft) 93,62 %
17.09.2023 20:22 22,4 C 20,0 C 16,7 C 89 % 1011,0 hPa 0,0 l/m 0 min 0 min 0 W/m 0,0 km/h (0 Bft) 93,48 %
17.09.2023 20:24 22,4 C 20,0 C 16,7 C 90 % 1011,0 hPa 0,0 l/m 0 min 0 min 0 W/m 0,0 km/h (0 Bft) 95,74 %
17.09.2023 20:26 22,3 C 20,0 C 16,7 C 90 % 1011,0 hPa 0,0 l/m 0 min 0 min 0 W/m 0,0 km/h (0 Bft) 95,74 %
17.09.2023 20:28 22,3 C 20,0 C 16,7 C 90 % 1010,9 hPa 0,0 l/m 0 min 0 min 0 W/m 0,0 km/h (0 Bft) 95,74 %
17.09.2023 20:30 22,2 C 20,0 C 16,7 C 90 % 1010,9 hPa 0,0 l/m 0 min 0 min 0 W/m 0,0 km/h (0 Bft) 93,62 %
17.09.2023 20:32 22,1 C 20,0 C 16,1 C 90 % 1010,8 hPa 0,0 l/m 0 min 0 min 0 W/m 0,0 km/h (0 Bft) 95,74 %
17.09.2023 20:34 22,1 C 20,0 C 16,1 C 90 % 1010,9 hPa 0,0 l/m 0 min 0 min 0 W/m 0,0 km/h (0 Bft) 97,87 %
17.09.2023 20:36 22,1 C 20,0 C 16,1 C 90 % 1010,9 hPa 0,0 l/m 0 min 0 min 0 W/m 0,0 km/h (0 Bft) 97,83 %
17.09.2023 20:38 22,0 C 20,0 C 16,1 C 91 % 1010,9 hPa 0,0 l/m 0 min 0 min 0 W/m 0,0 km/h (0 Bft) 97,87 %
17.09.2023 20:40 21,9 C 20,0 C 16,1 C 91 % 1010,9 hPa 0,0 l/m 0 min 0 min 0 W/m 0,0 km/h (0 Bft) 100,00 %
17.09.2023 20:42 21,9 C 20,0 C 16,1 C 91 % 1010,9 hPa 0,0 l/m 0 min 0 min 0 W/m 0,0 km/h (0 Bft) 100,00 %
17.09.2023 20:44 21,8 C 20,0 C 16,1 C 91 % 1010,8 hPa 0,0 l/m 0 min 0 min 0 W/m 0,0 km/h (0 Bft) 100,00 %
17.09.2023 20:46 21,8 C 20,0 C 16,1 C 91 % 1010,7 hPa 0,0 l/m 0 min 0 min 0 W/m 0,0 km/h (0 Bft) 97,96 %
17.09.2023 20:48 21,8 C 20,0 C 16,1 C 91 % 1010,8 hPa 0,0 l/m 0 min 0 min 0 W/m 0,0 km/h (0 Bft) 100,00 %
17.09.2023 20:50 21,7 C 20,0 C 16,1 C 91 % 1010,7 hPa 0,0 l/m 0 min 0 min 0 W/m 0,0 km/h (0 Bft) 100,00 %
17.09.2023 20:52 21,7 C 20,0 C 16,1 C 91 % 1010,7 hPa 0,0 l/m 0 min 0 min 0 W/m 0,0 km/h (0 Bft) 100,00 %
17.09.2023 20:54 21,7 C 20,0 C 16,1 C 91 % 1010,6 hPa 0,0 l/m 0 min 0 min 0 W/m 0,0 km/h (0 Bft) 97,87 %
17.09.2023 20:56 21,7 C 20,0 C 16,1 C 92 % 1010,6 hPa 0,0 l/m 0 min 0 min 0 W/m 0,0 km/h (0 Bft) 97,87 %
17.09.2023 20:58 21,6 C 20,0 C 16,1 C 92 % 1010,5 hPa 0,0 l/m 0 min 0 min 0 W/m 0,0 km/h (0 Bft) 100,00 %
17.09.2023 21:00 21,6 C 20,0 C 16,1 C 92 % 1010,5 hPa 0,0 l/m 0 min 0 min 0 W/m 0,0 km/h (0 Bft) 97,87 %
17.09.2023 21:02 21,6 C 20,0 C 16,1 C 92 % 1010,4 hPa 0,0 l/m 0 min 0 min 0 W/m 0,0 km/h (0 Bft) 93,48 %
17.09.2023 21:04 21,5 C 20,0 C 16,1 C 92 % 1010,4 hPa 0,0 l/m 0 min 0 min 0 W/m 0,0 km/h (0 Bft) 97,50 %
17.09.2023 21:06 21,4 C 20,0 C 16,1 C 92 % 1010,5 hPa 0,0 l/m 0 min 0 min 0 W/m 0,0 km/h (0 Bft) 100,00 %
17.09.2023 21:08 21,4 C 20,0 C 16,1 C 92 % 1010,5 hPa 0,0 l/m 0 min 0 min 0 W/m 0,0 km/h (0 Bft) 100,00 %
17.09.2023 21:10 21,4 C 20,0 C 16,7 C 92 % 1010,5 hPa 0,0 l/m 0 min 0 min 0 W/m 0,0 km/h (0 Bft) 97,87 %
17.09.2023 21:12 21,4 C 20,0 C 16,1 C 92 % 1010,4 hPa 0,0 l/m 0 min 0 min 0 W/m 0,0 km/h (0 Bft) 100,00 %
17.09.2023 21:14 21,3 C 20,0 C 16,1 C 92 % 1010,4 hPa 0,0 l/m 0 min 0 min 0 W/m 0,0 km/h (0 Bft) 100,00 %
17.09.2023 21:16 21,3 C 20,0 C 16,1 C 92 % 1010,4 hPa 0,0 l/m 0 min 0 min 0 W/m 0,0 km/h (0 Bft) 95,74 %
17.09.2023 21:18 21,3 C 20,0 C 16,1 C 92 % 1010,4 hPa 0,0 l/m 0 min 0 min 0 W/m 0,0 km/h (0 Bft) 97,83 %
17.09.2023 21:20 21,3 C 20,0 C 16,1 C 92 % 1010,4 hPa 0,0 l/m 0 min 0 min 0 W/m 0,0 km/h (0 Bft) 93,62 %
17.09.2023 21:22 21,2 C 20,0 C 16,1 C 92 % 1010,3 hPa 0,0 l/m 0 min 0 min 0 W/m 0,0 km/h (0 Bft) 97,87 %
17.09.2023 21:24 21,2 C 20,0 C 16,1 C 92 % 1010,3 hPa 0,0 l/m 0 min 0 min 0 W/m 0,0 km/h (0 Bft) 95,74 %
17.09.2023 21:26 21,2 C 20,0 C 16,1 C 92 % 1010,3 hPa 0,0 l/m 0 min 0 min 0 W/m 0,0 km/h (0 Bft) 97,87 %
17.09.2023 21:28 21,1 C 20,0 C 16,1 C 92 % 1010,2 hPa 0,0 l/m 0 min 0 min 0 W/m 0,0 km/h (0 Bft) 95,74 %
17.09.2023 21:30 21,1 C 20,0 C 16,1 C 92 % 1010,2 hPa 0,0 l/m 0 min 0 min 0 W/m 0,0 km/h (0 Bft) 97,87 %
17.09.2023 21:32 21,1 C 19,4 C 16,1 C 92 % 1010,1 hPa 0,0 l/m 0 min 0 min 0 W/m 0,0 km/h (0 Bft) 97,83 %
17.09.2023 21:34 21,1 C 19,4 C 16,1 C 92 % 1010,0 hPa 0,0 l/m 0 min 0 min 0 W/m 0,0 km/h (0 Bft) 97,87 %
17.09.2023 21:36 21,1 C 19,4 C 16,1 C 92 % 1010,0 hPa 0,0 l/m 0 min 0 min 0 W/m 0,0 km/h (0 Bft) 95,74 %
17.09.2023 21:38 21,0 C 19,4 C 16,1 C 93 % 1010,0 hPa 0,0 l/m 0 min 0 min 0 W/m 0,0 km/h (0 Bft) 97,87 %
17.09.2023 21:40 20,9 C 19,4 C 16,1 C 92 % 1010,0 hPa 0,0 l/m 0 min 0 min 0 W/m 0,0 km/h (0 Bft) 97,87 %
17.09.2023 21:42 20,9 C 19,4 C 16,1 C 92 % 1010,0 hPa 0,0 l/m 0 min 0 min 0 W/m 0,0 km/h (0 Bft) 95,74 %
17.09.2023 21:44 20,9 C 19,4 C 16,1 C 92 % 1010,0 hPa 0,0 l/m 0 min 0 min 0 W/m 0,0 km/h (0 Bft) 97,87 %
17.09.2023 21:46 20,9 C 19,4 C 16,1 C 92 % 1010,0 hPa 0,0 l/m 0 min 0 min 0 W/m 0,0 km/h (0 Bft) 97,83 %
17.09.2023 21:48 20,9 C 19,4 C 15,6 C 93 % 1010,0 hPa 0,0 l/m 0 min 0 min 0 W/m 0,0 km/h (0 Bft) 97,87 %
17.09.2023 21:50 20,8 C 19,4 C 15,6 C 93 % 1010,0 hPa 0,0 l/m 0 min 0 min 0 W/m 0,0 km/h (0 Bft) 95,74 %
17.09.2023 21:52 20,8 C 18,9 C 15,6 C 93 % 1010,1 hPa 0,0 l/m 0 min 0 min 0 W/m 0,0 km/h (0 Bft) 97,87 %
17.09.2023 21:54 20,8 C 18,9 C 15,6 C 93 % 1010,0 hPa 0,0 l/m 0 min 0 min 0 W/m 0,0 km/h (0 Bft) 93,62 %
17.09.2023 21:56 20,8 C 18,9 C 15,6 C 93 % 1010,0 hPa 0,0 l/m 0 min 0 min 0 W/m 0,0 km/h (0 Bft) 97,87 %
17.09.2023 21:58 20,7 C 18,9 C 15,6 C 93 % 1010,0 hPa 0,0 l/m 0 min 0 min 0 W/m 0,0 km/h (0 Bft) 93,62 %
17.09.2023 22:00 20,7 C 18,9 C 15,6 C 93 % 1010,0 hPa 0,0 l/m 0 min 0 min 0 W/m 0,0 km/h (0 Bft) 95,65 %
17.09.2023 22:02 20,7 C 18,9 C 15,6 C 93 % 1010,0 hPa 0,0 l/m 0 min 0 min 0 W/m 0,0 km/h (0 Bft) 95,74 %
17.09.2023 22:04 20,7 C 18,9 C 15,6 C 93 % 1010,0 hPa 0,0 l/m 0 min 0 min 0 W/m 0,0 km/h (0 Bft) 96,00 %
17.09.2023 22:06 20,7 C 18,9 C 15,6 C 93 % 1009,9 hPa 0,0 l/m 0 min 0 min 0 W/m 0,0 km/h (0 Bft) 95,74 %
17.09.2023 22:08 20,6 C 18,9 C 15,6 C 93 % 1009,9 hPa 0,0 l/m 0 min 0 min 0 W/m 0,0 km/h (0 Bft) 97,87 %
17.09.2023 22:10 20,6 C 18,9 C 15,6 C 93 % 1009,9 hPa 0,0 l/m 0 min 0 min 0 W/m 0,0 km/h (0 Bft) 97,87 %
17.09.2023 22:12 20,6 C 18,9 C 15,6 C 93 % 1010,0 hPa 0,0 l/m 0 min 0 min 0 W/m 0,0 km/h (0 Bft) 95,65 %
17.09.2023 22:14 20,6 C 18,9 C 15,6 C 93 % 1010,0 hPa 0,0 l/m 0 min 0 min 0 W/m 0,0 km/h (0 Bft) 97,87 %
17.09.2023 22:16 20,6 C 18,9 C 15,6 C 93 % 1010,0 hPa 0,0 l/m 0 min 0 min 0 W/m 0,0 km/h (0 Bft) 97,87 %
17.09.2023 22:18 20,5 C 18,9 C 15,6 C 93 % 1010,0 hPa 0,0 l/m 0 min 0 min 0 W/m 0,0 km/h (0 Bft) 97,87 %
17.09.2023 22:20 20,5 C 18,9 C 15,6 C 93 % 1009,9 hPa 0,0 l/m 0 min 0 min 0 W/m 0,0 km/h (0 Bft) 95,74 %
17.09.2023 22:22 20,4 C 18,9 C 15,6 C 93 % 1009,9 hPa 0,0 l/m 0 min 0 min 0 W/m 0,0 km/h (0 Bft) 97,87 %
17.09.2023 22:24 20,4 C 18,9 C 15,6 C 93 % 1009,9 hPa 0,0 l/m 0 min 0 min 0 W/m 0,0 km/h (0 Bft) 100,00 %
17.09.2023 22:26 20,4 C 18,9 C 15,6 C 93 % 1009,8 hPa 0,0 l/m 0 min 0 min 0 W/m 0,0 km/h (0 Bft) 100,00 %
17.09.2023 22:28 20,4 C 18,9 C 15,6 C 94 % 1009,8 hPa 0,0 l/m 0 min 0 min 0 W/m 0,0 km/h (0 Bft) 100,00 %
17.09.2023 22:30 20,3 C 18,9 C 15,6 C 94 % 1009,8 hPa 0,0 l/m 0 min 0 min 0 W/m 0,0 km/h (0 Bft) 100,00 %
17.09.2023 22:32 20,3 C 18,9 C 15,0 C 94 % 1009,9 hPa 0,0 l/m 0 min 0 min 0 W/m 0,0 km/h (0 Bft) 97,87 %
17.09.2023 22:34 20,3 C 18,9 C 15,0 C 94 % 1009,9 hPa 0,0 l/m 0 min 0 min 0 W/m 0,0 km/h (0 Bft) 97,87 %
17.09.2023 22:36 20,3 C 18,9 C 15,6 C 94 % 1009,9 hPa 0,0 l/m 0 min 0 min 0 W/m 0,0 km/h (0 Bft) 100,00 %
17.09.2023 22:38 20,2 C 18,9 C 15,0 C 94 % 1009,9 hPa 0,0 l/m 0 min 0 min 0 W/m 0,0 km/h (0 Bft) 100,00 %
17.09.2023 22:40 20,2 C 18,9 C 15,0 C 94 % 1009,9 hPa 0,0 l/m 0 min 0 min 0 W/m 0,0 km/h (0 Bft) 97,83 %
17.09.2023 22:42 20,2 C 18,3 C 15,0 C 94 % 1009,8 hPa 0,0 l/m 0 min 0 min 0 W/m 0,0 km/h (0 Bft) 100,00 %
17.09.2023 22:44 20,2 C 18,3 C 15,0 C 94 % 1009,8 hPa 0,0 l/m 0 min 0 min 0 W/m 0,0 km/h (0 Bft) 100,00 %
17.09.2023 22:46 20,2 C 18,3 C 15,0 C 94 % 1009,8 hPa 0,0 l/m 0 min 0 min 0 W/m 0,0 km/h (0 Bft) 98,36 %
17.09.2023 22:48 20,1 C 18,3 C 15,0 C 94 % 1009,9 hPa 0,0 l/m 0 min 0 min 0 W/m 0,0 km/h (0 Bft) 97,87 %
17.09.2023 22:50 20,1 C 18,3 C 15,0 C 94 % 1010,0 hPa 0,0 l/m 0 min 0 min 0 W/m 0,0 km/h (0 Bft) 95,74 %
17.09.2023 22:52 20,1 C 18,3 C 15,0 C 94 % 1009,9 hPa 0,0 l/m 0 min 0 min 0 W/m 0,0 km/h (0 Bft) 95,74 %
17.09.2023 22:54 20,1 C 18,3 C 15,0 C 94 % 1010,0 hPa 0,0 l/m 0 min 0 min 0 W/m 0,0 km/h (0 Bft) 97,83 %
17.09.2023 22:56 20,1 C 18,3 C 15,0 C 94 % 1009,9 hPa 0,0 l/m 0 min 0 min 0 W/m 0,0 km/h (0 Bft) 93,62 %
17.09.2023 22:58 20,0 C 18,3 C 15,0 C 94 % 1009,9 hPa 0,0 l/m 0 min 0 min 0 W/m 0,0 km/h (0 Bft) 97,87 %
17.09.2023 23:00 20,0 C 18,3 C 15,0 C 94 % 1009,9 hPa 0,0 l/m 0 min 0 min 0 W/m 0,0 km/h (0 Bft) 95,74 %
17.09.2023 23:02 20,0 C 18,3 C 15,0 C 94 % 1009,8 hPa 0,0 l/m 0 min 0 min 0 W/m 0,0 km/h (0 Bft) 97,87 %
17.09.2023 23:04 19,9 C 18,3 C 15,0 C 94 % 1009,7 hPa 0,0 l/m 0 min 0 min 0 W/m 0,0 km/h (0 Bft) 98,00 %
17.09.2023 23:06 19,9 C 18,3 C 15,0 C 94 % 1009,7 hPa 0,0 l/m 0 min 0 min 0 W/m 0,0 km/h (0 Bft) 93,62 %
17.09.2023 23:08 19,9 C 18,3 C 15,0 C 94 % 1009,6 hPa 0,0 l/m 0 min 0 min 0 W/m 0,0 km/h (0 Bft) 97,83 %
17.09.2023 23:10 19,9 C 18,3 C 15,0 C 94 % 1009,6 hPa 0,0 l/m 0 min 0 min 0 W/m 0,0 km/h (0 Bft) 97,87 %
17.09.2023 23:12 19,9 C 18,3 C 15,0 C 94 % 1009,6 hPa 0,0 l/m 0 min 0 min 0 W/m 0,0 km/h (0 Bft) 97,87 %
17.09.2023 23:14 19,9 C 18,3 C 15,0 C 94 % 1009,6 hPa 0,0 l/m 0 min 0 min 0 W/m 0,0 km/h (0 Bft) 97,87 %
17.09.2023 23:16 19,8 C 18,3 C 15,0 C 94 % 1009,6 hPa 0,0 l/m 0 min 0 min 0 W/m 0,0 km/h (0 Bft) 97,87 %
17.09.2023 23:18 19,8 C 18,3 C 15,0 C 95 % 1009,6 hPa 0,0 l/m 0 min 0 min 0 W/m 0,0 km/h (0 Bft) 97,87 %
17.09.2023 23:20 19,8 C 18,3 C 15,0 C 95 % 1009,6 hPa 0,0 l/m 0 min 0 min 0 W/m 0,0 km/h (0 Bft) 97,87 %
17.09.2023 23:22 19,8 C 18,3 C 15,0 C 95 % 1009,7 hPa 0,0 l/m 0 min 0 min 0 W/m 0,0 km/h (0 Bft) 95,65 %
17.09.2023 23:24 19,8 C 18,3 C 15,0 C 95 % 1009,7 hPa 0,0 l/m 0 min 0 min 0 W/m 0,0 km/h (0 Bft) 95,74 %
17.09.2023 23:26 19,8 C 18,3 C 15,0 C 95 % 1009,6 hPa 0,0 l/m 0 min 0 min 0 W/m 0,0 km/h (0 Bft) 95,74 %
17.09.2023 23:28 19,8 C 18,3 C 15,0 C 95 % 1009,6 hPa 0,0 l/m 0 min 0 min 0 W/m 0,0 km/h (0 Bft) 97,87 %
17.09.2023 23:30 19,7 C 18,3 C 15,0 C 95 % 1009,7 hPa 0,0 l/m 0 min 0 min 0 W/m 0,0 km/h (0 Bft) 97,87 %
17.09.2023 23:32 19,7 C 18,3 C 15,0 C 95 % 1009,6 hPa 0,0 l/m 0 min 0 min 0 W/m 0,0 km/h (0 Bft) 95,83 %
17.09.2023 23:34 19,7 C 18,3 C 15,0 C 95 % 1009,5 hPa 0,0 l/m 0 min 0 min 0 W/m 0,0 km/h (0 Bft) 97,83 %
17.09.2023 23:36 19,7 C 18,3 C 15,0 C 95 % 1009,6 hPa 0,0 l/m 0 min 0 min 0 W/m 0,0 km/h (0 Bft) 95,74 %
17.09.2023 23:38 19,7 C 18,3 C 15,0 C 95 % 1009,6 hPa 0,0 l/m 0 min 0 min 0 W/m 0,0 km/h (0 Bft) 100,00 %
17.09.2023 23:40 19,7 C 18,3 C 15,0 C 95 % 1009,6 hPa 0,0 l/m 0 min 0 min 0 W/m 0,0 km/h (0 Bft) 100,00 %
17.09.2023 23:42 19,7 C 18,3 C 15,0 C 95 % 1009,7 hPa 0,0 l/m 0 min 0 min 0 W/m 0,0 km/h (0 Bft) 97,87 %
17.09.2023 23:44 19,7 C 18,3 C 15,0 C 95 % 1009,7 hPa 0,0 l/m 0 min 0 min 0 W/m 0,0 km/h (0 Bft) 93,62 %
17.09.2023 23:46 19,7 C 18,3 C 15,0 C 95 % 1009,7 hPa 0,0 l/m 0 min 0 min 0 W/m 0,0 km/h (0 Bft) 95,74 %
17.09.2023 23:48 19,6 C 18,3 C 15,0 C 95 % 1009,7 hPa 0,0 l/m 0 min 0 min 0 W/m 0,0 km/h (0 Bft) 95,65 %
17.09.2023 23:50 19,6 C 18,3 C 15,0 C 95 % 1009,7 hPa 0,0 l/m 0 min 0 min 0 W/m 0,0 km/h (0 Bft) 97,87 %
17.09.2023 23:52 19,6 C 18,3 C 15,0 C 95 % 1009,7 hPa 0,0 l/m 0 min 0 min 0 W/m 0,0 km/h (0 Bft) 97,87 %
17.09.2023 23:54 19,6 C 18,3 C 15,0 C 95 % 1009,7 hPa 0,0 l/m 0 min 0 min 0 W/m 0,0 km/h (0 Bft) 95,74 %
17.09.2023 23:56 19,6 C 18,3 C 15,0 C 96 % 1009,6 hPa 0,0 l/m 0 min 0 min 0 W/m 0,0 km/h (0 Bft) 93,62 %
17.09.2023 23:58 19,6 C 18,3 C 15,0 C 96 % 1009,5 hPa 0,0 l/m 0 min 0 min 0 W/m 0,0 km/h (0 Bft) 95,74 %
_ Min-Zeit 07:00 06:58 05:06 15:02 23:34 - - - - 00:18 06:56
Minimum _ 17,9 C 16,7 C 13,9 C 70 % 1009,5 hPa - - - - 0,0 km/h (0 Bft) 91,30 %
_ Max-Zeit 14:50 14:20 14:26 07:32 02:26 08:02 12:16 04:08 14:24 10:32 00:00
Maximum _ 27,0 C 29,4 C 21,1 C 100 % 1014,4 hPa 5,4 l/m 4 min 5 min 815 W/m 22,5 km/h
S-SW (4 Bft)
100,00 %
Durchschnitt _ 21,6 C 20,9 C 16,6 C 90 % 1012,3 hPa #14,8 l/m #2:44 h #2:23 h 211 W/m 4,4 km/h (1 Bft) 97,33 %
© 2023 W. Hausmann